Observation data for Segovia 7SSW on 11/11/2019      Previous  Date       Current Mesonet Observations  Soil Data  Daily Summary Page  Observations in Plain Language
KSE2 110600Z 18007KT 16/14 A2999 RMK A01 T01590139  RH  088%=      5-min Rain = 0
KSE2 110601Z 18006KT 16/14 A2999 RMK A01 T01590140  RH  088%=      5-min Rain = 0
KSE2 110602Z 18008G13KT 16/14 A2999 RMK A01 T01590140  RH  088%=      5-min Rain = 0
KSE2 110603Z 19009KT 16/14 A2999 RMK A01 T01590140  RH  088%=      5-min Rain = 0
KSE2 110604Z 18007KT 16/14 A2999 RMK A01 T01590140  RH  088%=      5-min Rain = 0
KSE2 110605Z 18008KT 16/14 A2999 RMK A01 T01590140  RH  088%=      5-min Rain = 0
KSE2 110606Z 19008KT 16/14 A2999 RMK A01 T01590140  RH  088%=      5-min Rain = 0
KSE2 110607Z 18006KT 16/14 A2999 RMK A01 T01590140  RH  088%=      5-min Rain = 0
KSE2 110608Z 19009KT 16/14 A2999 RMK A01 T01590139  RH  088%=      5-min Rain = 0
KSE2 110609Z 18009G14KT 16/14 A2999 RMK A01 T01590139  RH  088%=      5-min Rain = 0
KSE2 110610Z 19008KT 16/14 A2999 RMK A01 T01590140  RH  088%=      5-min Rain = 0
KSE2 110611Z 19007KT 16/14 A2999 RMK A01 T01590139  RH  088%=      5-min Rain = 0
KSE2 110612Z 19009KT 16/14 A2999 RMK A01 T01590140  RH  088%=      5-min Rain = 0
KSE2 110613Z 20010KT 16/14 A2999 RMK A01 T01590140  RH  088%=      5-min Rain = 0
KSE2 110614Z 19007KT 16/14 A2999 RMK A01 T01600140  RH  088%=      5-min Rain = 0
KSE2 110615Z 20009KT 16/14 A2999 RMK A01 T01600140  RH  088%=      5-min Rain = 0
KSE2 110616Z 19009KT 16/14 A2999 RMK A01 T01600140  RH  088%=      5-min Rain = 0
KSE2 110617Z 19007KT 16/14 A2998 RMK A01 T01600141  RH  088%=      5-min Rain = 0
KSE2 110618Z 19009KT 16/14 A2998 RMK A01 T01610141  RH  088%=      5-min Rain = 0
KSE2 110619Z 19011KT 16/14 A2998 RMK A01 T01610141  RH  088%=      5-min Rain = 0
KSE2 110620Z 19009KT 16/14 A2998 RMK A01 T01610141  RH  088%=      5-min Rain = 0
KSE2 110621Z 19008KT 16/14 A2998 RMK A01 T01610141  RH  088%=      5-min Rain = 0
KSE2 110622Z 18007KT 16/14 A2998 RMK A01 T01610141  RH  088%=      5-min Rain = 0
KSE2 110623Z 18008KT 16/14 A2998 RMK A01 T01610141  RH  088%=      5-min Rain = 0
KSE2 110624Z 19006KT 16/14 A2998 RMK A01 T01610141  RH  088%=      5-min Rain = 0
KSE2 110625Z 19010KT 16/14 A2998 RMK A01 T01610141  RH  088%=      5-min Rain = 0
KSE2 110626Z 19009KT 16/14 A2998 RMK A01 T01610141  RH  088%=      5-min Rain = 0
KSE2 110627Z 19009KT 16/14 A2998 RMK A01 T01610141  RH  088%=      5-min Rain = 0
KSE2 110628Z 20007KT 16/14 A2998 RMK A01 T01610141  RH  088%=      5-min Rain = 0
KSE2 110629Z 20006KT 16/14 A2998 RMK A01 T01610142  RH  088%=      5-min Rain = 0
KSE2 110630Z 19008KT 16/14 A2998 RMK A01 T01610142  RH  088%=      5-min Rain = 0
KSE2 110631Z 20009KT 16/14 A2998 RMK A01 T01620142  RH  088%=      5-min Rain = 0
KSE2 110632Z 19009KT 16/14 A2998 RMK A01 T01620142  RH  088%=      5-min Rain = 0
KSE2 110633Z 20007KT 16/14 A2998 RMK A01 T01620142  RH  088%=      5-min Rain = 0
KSE2 110634Z 20011G19KT 16/14 A2998 RMK A01 T01620142  RH  088%=      5-min Rain = 0
KSE2 110635Z 20011G18KT 16/14 A2998 RMK A01 T01620143  RH  088%=      5-min Rain = 0
KSE2 110636Z 19008KT 16/14 A2998 RMK A01 T01630143  RH  088%=      5-min Rain = 0
KSE2 110637Z 20010KT 16/14 A2998 RMK A01 T01630143  RH  088%=      5-min Rain = 0
KSE2 110638Z 19012KT 16/14 A2998 RMK A01 T01630143  RH  088%=      5-min Rain = 0
KSE2 110639Z 20010KT 16/14 A2998 RMK A01 T01630143  RH  088%=      5-min Rain = 0
KSE2 110640Z 20010KT 16/14 A2998 RMK A01 T01640143  RH  088%=      5-min Rain = 0
KSE2 110641Z 20008KT 16/14 A2998 RMK A01 T01640143  RH  088%=      5-min Rain = 0
KSE2 110642Z 20011KT 16/14 A2998 RMK A01 T01640143  RH  088%=      5-min Rain = 0
KSE2 110643Z 20009KT 16/14 A2998 RMK A01 T01640143  RH  088%=      5-min Rain = 0
KSE2 110644Z 20011KT 16/14 A2998 RMK A01 T01640143  RH  088%=      5-min Rain = 0
KSE2 110645Z 21010KT 16/14 A2998 RMK A01 T01640143  RH  088%=      5-min Rain = 0
KSE2 110646Z 20009KT 16/14 A2998 RMK A01 T01640143  RH  088%=      5-min Rain = 0
KSE2 110647Z 19012G17KT 16/14 A2998 RMK A01 T01640143  RH  088%=      5-min Rain = 0
KSE2 110648Z 20010KT 16/14 A2998 RMK A01 T01640144  RH  088%=      5-min Rain = 0
KSE2 110649Z 20008KT 16/14 A2998 RMK A01 T01640143  RH  088%=      5-min Rain = 0
KSE2 110650Z 19008KT 16/14 A2998 RMK A01 T01640143  RH  088%=      5-min Rain = 0
KSE2 110651Z 20009KT 16/14 A2997 RMK A01 T01640143  RH  088%=      5-min Rain = 0
KSE2 110652Z 20010KT 16/14 A2997 RMK A01 T01630143  RH  088%=      5-min Rain = 0
KSE2 110653Z 19007KT 16/14 A2998 RMK A01 T01630143  RH  088%=      5-min Rain = 0
KSE2 110654Z 19007KT 16/14 A2998 RMK A01 T01630143  RH  088%=      5-min Rain = 0
KSE2 110655Z 20008KT 16/14 A2998 RMK A01 T01630143  RH  088%=      5-min Rain = 0
KSE2 110656Z 20009KT 16/14 A2998 RMK A01 T01630144  RH  088%=      5-min Rain = 0
KSE2 110657Z 20008KT 16/14 A2998 RMK A01 T01630144  RH  088%=      5-min Rain = 0
KSE2 110658Z 20010G16KT 16/14 A2998 RMK A01 T01630143  RH  088%=      5-min Rain = 0
KSE2 110659Z 19011KT 16/14 A2998 RMK A01 T01620143  RH  088%=      5-min Rain = 0
KSE2 110700Z 20010KT 16/14 A2998 RMK A01 T01620143  RH  088%=      5-min Rain = 0
KSE2 110701Z 20009KT 16/14 A2997 RMK A01 T01630143  RH  088%=      5-min Rain = 0
KSE2 110702Z 20007G12KT 16/14 A2998 RMK A01 T01630143  RH  088%=      5-min Rain = 0
KSE2 110703Z 20010KT 16/14 A2997 RMK A01 T01630143  RH  088%=      5-min Rain = 0
KSE2 110704Z 20009KT 16/14 A2997 RMK A01 T01620143  RH  088%=      5-min Rain = 0
KSE2 110705Z 19009KT 16/14 A2997 RMK A01 T01620143  RH  089%=      5-min Rain = 0
KSE2 110706Z 20009G14KT 16/14 A2997 RMK A01 T01630144  RH  089%=      5-min Rain = 0
KSE2 110707Z 20010KT 16/14 A2997 RMK A01 T01630144  RH  089%=      5-min Rain = 0
KSE2 110708Z 19007KT 16/14 A2997 RMK A01 T01620143  RH  089%=      5-min Rain = 0
KSE2 110709Z 19009KT 16/14 A2997 RMK A01 T01620144  RH  089%=      5-min Rain = 0
KSE2 110710Z 20009KT 16/14 A2997 RMK A01 T01620143  RH  089%=      5-min Rain = 0
KSE2 110711Z 19010KT 16/14 A2997 RMK A01 T01620143  RH  089%=      5-min Rain = 0
KSE2 110712Z 19009KT 16/14 A2997 RMK A01 T01620143  RH  089%=      5-min Rain = 0
KSE2 110713Z 20007G13KT 16/14 A2997 RMK A01 T01620143  RH  089%=      5-min Rain = 0
KSE2 110714Z 20009KT 16/14 A2997 RMK A01 T01610143  RH  089%=      5-min Rain = 0
KSE2 110715Z 19008KT 16/14 A2997 RMK A01 T01620143  RH  089%=      5-min Rain = 0
KSE2 110716Z 20008KT 16/14 A2997 RMK A01 T01610143  RH  089%=      5-min Rain = 0
KSE2 110717Z 19011KT 16/14 A2997 RMK A01 T01610143  RH  089%=      5-min Rain = 0
KSE2 110718Z 20011KT 16/14 A2997 RMK A01 T01610144  RH  089%=      5-min Rain = 0
KSE2 110719Z 20008KT 16/14 A2997 RMK A01 T01610143  RH  089%=      5-min Rain = 0
KSE2 110720Z 19008G13KT 16/14 A2997 RMK A01 T01610143  RH  089%=      5-min Rain = 0
KSE2 110721Z 19010KT 16/14 A2997 RMK A01 T01610143  RH  089%=      5-min Rain = 0
KSE2 110722Z 19007KT 16/14 A2997 RMK A01 T01610143  RH  089%=      5-min Rain = 0
KSE2 110723Z 19007G14KT 16/14 A2997 RMK A01 T01610143  RH  089%=      5-min Rain = 0
KSE2 110724Z 18007KT 16/14 A2997 RMK A01 T01600143  RH  090%=      5-min Rain = 0
KSE2 110725Z 18009KT 16/14 A2997 RMK A01 T01610144  RH  090%=      5-min Rain = 0
KSE2 110726Z 19010KT 16/14 A2997 RMK A01 T01610144  RH  090%=      5-min Rain = 0
KSE2 110727Z 19009KT 16/14 A2997 RMK A01 T01610144  RH  090%=      5-min Rain = 0
KSE2 110728Z 18008KT 16/14 A2997 RMK A01 T01610144  RH  090%=      5-min Rain = 0
KSE2 110729Z 18007KT 16/14 A2997 RMK A01 T01610144  RH  090%=      5-min Rain = 0
KSE2 110730Z 19008KT 16/14 A2997 RMK A01 T01610143  RH  090%=      5-min Rain = 0
KSE2 110731Z 19007KT 16/14 A2997 RMK A01 T01610144  RH  090%=      5-min Rain = 0
KSE2 110732Z 18010KT 16/14 A2997 RMK A01 T01610144  RH  090%=      5-min Rain = 0
KSE2 110733Z 20009KT 16/14 A2997 RMK A01 T01610144  RH  090%=      5-min Rain = 0
KSE2 110734Z 19008KT 16/14 A2997 RMK A01 T01610144  RH  090%=      5-min Rain = 0
KSE2 110735Z 19010KT 16/14 A2997 RMK A01 T01610144  RH  090%=      5-min Rain = 0
KSE2 110736Z 19008G14KT 16/14 A2997 RMK A01 T01610144  RH  090%=      5-min Rain = 0
KSE2 110737Z 20010KT 16/14 A2997 RMK A01 T01610144  RH  090%=      5-min Rain = 0
KSE2 110738Z 20009KT 16/14 A2997 RMK A01 T01610144  RH  090%=      5-min Rain = 0
KSE2 110739Z 19011KT 16/14 A2997 RMK A01 T01610144  RH  090%=      5-min Rain = 0
KSE2 110740Z 20010KT 16/14 A2997 RMK A01 T01610144  RH  090%=      5-min Rain = 0
KSE2 110741Z 19009KT 16/14 A2997 RMK A01 T01610144  RH  090%=      5-min Rain = 0
KSE2 110742Z 20010KT 16/14 A2997 RMK A01 T01610144  RH  089%=      5-min Rain = 0
KSE2 110743Z 20008KT 16/14 A2997 RMK A01 T01610144  RH  089%=      5-min Rain = 0
KSE2 110744Z 19008KT 16/14 A2997 RMK A01 T01610144  RH  089%=      5-min Rain = 0
KSE2 110745Z 19008KT 16/14 A2997 RMK A01 T01620144  RH  090%=      5-min Rain = 0
KSE2 110746Z 19005KT 16/14 A2997 RMK A01 T01610144  RH  090%=      5-min Rain = 0
KSE2 110747Z 20007KT 16/15 A2997 RMK A01 T01620145  RH  090%=      5-min Rain = 0
KSE2 110748Z 19008KT 16/15 A2997 RMK A01 T01620145  RH  090%=      5-min Rain = 0
KSE2 110749Z 19007KT 16/15 A2997 RMK A01 T01620145  RH  090%=      5-min Rain = 0
KSE2 110750Z 19009KT 16/15 A2997 RMK A01 T01610145  RH  090%=      5-min Rain = 0
KSE2 110751Z 19009KT 16/15 A2997 RMK A01 T01610145  RH  090%=      5-min Rain = 0
KSE2 110752Z 20008G13KT 16/14 A2997 RMK A01 T01610144  RH  090%=      5-min Rain = 0
KSE2 110753Z 20010KT 16/14 A2997 RMK A01 T01610144  RH  090%=      5-min Rain = 0
KSE2 110754Z 19007KT 16/15 A2997 RMK A01 T01620145  RH  090%=      5-min Rain = 0
KSE2 110755Z 19008KT 16/15 A2997 RMK A01 T01620145  RH  090%=      5-min Rain = 0
KSE2 110756Z 20006G11KT 16/15 A2997 RMK A01 T01620145  RH  090%=      5-min Rain = 0
KSE2 110757Z 18009KT 16/15 A2997 RMK A01 T01620145  RH  090%=      5-min Rain = 0
KSE2 110758Z 20011KT 16/15 A2997 RMK A01 T01620145  RH  090%=      5-min Rain = 0
KSE2 110759Z 19010KT 16/15 A2997 RMK A01 T01620145  RH  090%=      5-min Rain = 0
KSE2 110800Z 19010KT 16/15 A2997 RMK A01 T01620145  RH  090%=      5-min Rain = 0
KSE2 110801Z 20009G14KT 16/15 A2997 RMK A01 T01620145  RH  089%=      5-min Rain = 0
KSE2 110802Z 19007KT 16/15 A2997 RMK A01 T01620145  RH  089%=      5-min Rain = 0
KSE2 110803Z 19011KT 16/15 A2997 RMK A01 T01620145  RH  089%=      5-min Rain = 0
KSE2 110804Z 19010KT 16/15 A2997 RMK A01 T01630145  RH  089%=      5-min Rain = 0
KSE2 110805Z 20011KT 16/15 A2997 RMK A01 T01630145  RH  089%=      5-min Rain = 0
KSE2 110806Z 20013KT 16/15 A2997 RMK A01 T01630146  RH  089%=      5-min Rain = 0
KSE2 110807Z 19008KT 16/15 A2997 RMK A01 T01630145  RH  089%=      5-min Rain = 0
KSE2 110808Z 19010KT 16/15 A2997 RMK A01 T01630146  RH  089%=      5-min Rain = 0
KSE2 110809Z 20008KT 16/15 A2997 RMK A01 T01630146  RH  089%=      5-min Rain = 0
KSE2 110810Z 19012KT 16/15 A2997 RMK A01 T01630146  RH  089%=      5-min Rain = 0
KSE2 110811Z 19008KT 16/15 A2997 RMK A01 T01630146  RH  089%=      5-min Rain = 0
KSE2 110812Z 20008KT 16/15 A2997 RMK A01 T01630146  RH  089%=      5-min Rain = 0
KSE2 110813Z 20009G14KT 16/15 A2997 RMK A01 T01630146  RH  089%=      5-min Rain = 0
KSE2 110814Z 19013KT 16/15 A2997 RMK A01 T01640146  RH  089%=      5-min Rain = 0
KSE2 110815Z 20009KT 16/15 A2997 RMK A01 T01640146  RH  089%=      5-min Rain = 0
KSE2 110816Z 19008KT 16/15 A2997 RMK A01 T01640146  RH  089%=      5-min Rain = 0
KSE2 110817Z 20009KT 16/15 A2997 RMK A01 T01640146  RH  089%=      5-min Rain = 0
KSE2 110818Z 20010G15KT 16/15 A2997 RMK A01 T01640146  RH  089%=      5-min Rain = 0
KSE2 110819Z 19011G16KT 16/15 A2997 RMK A01 T01640146  RH  089%=      5-min Rain = 0
KSE2 110820Z 20011G16KT 16/15 A2996 RMK A01 T01640146  RH  089%=      5-min Rain = 0
KSE2 110821Z 19010KT 16/15 A2997 RMK A01 T01640146  RH  089%=      5-min Rain = 0
KSE2 110822Z 21011KT 16/15 A2997 RMK A01 T01640146  RH  089%=      5-min Rain = 0
KSE2 110823Z 20009KT 16/15 A2997 RMK A01 T01640146  RH  089%=      5-min Rain = 0
KSE2 110824Z 19010G15KT 17/15 A2997 RMK A01 T01650147  RH  089%=      5-min Rain = 0
KSE2 110825Z 19009KT 17/15 A2997 RMK A01 T01650147  RH  089%=      5-min Rain = 0
KSE2 110826Z 19010G16KT 17/15 A2997 RMK A01 T01650146  RH  089%=      5-min Rain = 0
KSE2 110827Z 19008KT 17/15 A2997 RMK A01 T01650146  RH  089%=      5-min Rain = 0
KSE2 110828Z 20009KT 17/15 A2997 RMK A01 T01650147  RH  089%=      5-min Rain = 0
KSE2 110829Z 19010KT 17/15 A2997 RMK A01 T01650146  RH  089%=      5-min Rain = 0
KSE2 110830Z 19012KT 17/15 A2997 RMK A01 T01650147  RH  089%=      5-min Rain = 0
KSE2 110831Z 19009KT 17/15 A2997 RMK A01 T01650146  RH  089%=      5-min Rain = 0
KSE2 110832Z 20006KT 17/15 A2997 RMK A01 T01650147  RH  089%=      5-min Rain = 0
KSE2 110833Z 19006KT 17/15 A2997 RMK A01 T01650146  RH  089%=      5-min Rain = 0
KSE2 110834Z 18009KT 17/15 A2996 RMK A01 T01650147  RH  089%=      5-min Rain = 0
KSE2 110835Z 19011KT 17/15 A2996 RMK A01 T01650147  RH  089%=      5-min Rain = 0
KSE2 110836Z 21010KT 17/15 A2996 RMK A01 T01650147  RH  089%=      5-min Rain = 0
KSE2 110837Z 19009KT 17/15 A2996 RMK A01 T01650147  RH  089%=      5-min Rain = 0
KSE2 110838Z 20007KT 17/15 A2996 RMK A01 T01650147  RH  089%=      5-min Rain = 0
KSE2 110839Z 19007KT 17/15 A2996 RMK A01 T01650147  RH  089%=      5-min Rain = 0
KSE2 110840Z 19007KT 17/15 A2996 RMK A01 T01650147  RH  089%=      5-min Rain = 0
KSE2 110841Z 19008KT 17/15 A2996 RMK A01 T01650147  RH  089%=      5-min Rain = 0
KSE2 110842Z 18008KT 17/15 A2996 RMK A01 T01650147  RH  089%=      5-min Rain = 0
KSE2 110843Z 19009KT 17/15 A2996 RMK A01 T01650147  RH  089%=      5-min Rain = 0
KSE2 110844Z 19008KT 17/15 A2996 RMK A01 T01650147  RH  089%=      5-min Rain = 0
KSE2 110845Z 18007KT 17/15 A2996 RMK A01 T01650147  RH  089%=      5-min Rain = 0
KSE2 110846Z 19008G13KT 17/15 A2996 RMK A01 T01650147  RH  089%=      5-min Rain = 0
KSE2 110847Z 19006KT 17/15 A2996 RMK A01 T01650147  RH  089%=      5-min Rain = 0
KSE2 110848Z 18008KT 17/15 A2996 RMK A01 T01650147  RH  089%=      5-min Rain = 0
KSE2 110849Z 18008KT 17/15 A2996 RMK A01 T01650147  RH  089%=      5-min Rain = 0
KSE2 110850Z 18008KT 17/15 A2996 RMK A01 T01650147  RH  089%=      5-min Rain = 0
KSE2 110851Z 20009KT 16/15 A2996 RMK A01 T01640147  RH  089%=      5-min Rain = 0
KSE2 110852Z 19009KT 17/15 A2996 RMK A01 T01650147  RH  089%=      5-min Rain = 0
KSE2 110853Z 20007KT 17/15 A2996 RMK A01 T01650147  RH  089%=      5-min Rain = 0
KSE2 110854Z 18009KT 17/15 A2996 RMK A01 T01650147  RH  089%=      5-min Rain = 0
KSE2 110855Z 19008KT 17/15 A2996 RMK A01 T01650147  RH  089%=      5-min Rain = 0
KSE2 110856Z 19009KT 16/15 A2996 RMK A01 T01640146  RH  089%=      5-min Rain = 0
KSE2 110857Z 19008KT 17/15 A2996 RMK A01 T01650147  RH  089%=      5-min Rain = 0
KSE2 110858Z 19009KT 16/15 A2996 RMK A01 T01640146  RH  089%=      5-min Rain = 0
KSE2 110859Z 19010KT 16/15 A2996 RMK A01 T01640147  RH  089%=      5-min Rain = 0
KSE2 110900Z 18006KT 16/15 A2996 RMK A01 T01640146  RH  089%=      5-min Rain = 0
KSE2 110901Z 19009KT 16/15 A2996 RMK A01 T01640146  RH  089%=      5-min Rain = 0
KSE2 110902Z 18008KT 16/15 A2996 RMK A01 T01640146  RH  089%=      5-min Rain = 0
KSE2 110903Z 18008KT 16/15 A2996 RMK A01 T01640146  RH  089%=      5-min Rain = 0
KSE2 110904Z 18007KT 16/15 A2996 RMK A01 T01640146  RH  089%=      5-min Rain = 0
KSE2 110905Z 19007KT 16/15 A2996 RMK A01 T01640146  RH  089%=      5-min Rain = 0
KSE2 110906Z 18007KT 16/15 A2996 RMK A01 T01640146  RH  089%=      5-min Rain = 0
KSE2 110907Z 19011KT 16/15 A2996 RMK A01 T01640147  RH  089%=      5-min Rain = 0
KSE2 110908Z 18008KT 16/15 A2996 RMK A01 T01640147  RH  089%=      5-min Rain = 0
KSE2 110909Z 18006KT 16/15 A2996 RMK A01 T01640146  RH  089%=      5-min Rain = 0
KSE2 110910Z 19008KT 16/15 A2996 RMK A01 T01640147  RH  089%=      5-min Rain = 0
KSE2 110911Z 19009KT 16/15 A2996 RMK A01 T01640146  RH  089%=      5-min Rain = 0
KSE2 110912Z 19010KT 16/15 A2996 RMK A01 T01640146  RH  089%=      5-min Rain = 0
KSE2 110913Z 18010KT 16/15 A2996 RMK A01 T01640146  RH  089%=      5-min Rain = 0
KSE2 110914Z 18009KT 16/15 A2996 RMK A01 T01640146  RH  089%=      5-min Rain = 0
KSE2 110915Z 19008KT 16/15 A2996 RMK A01 T01640146  RH  089%=      5-min Rain = 0
KSE2 110916Z 19008KT 17/15 A2996 RMK A01 T01650147  RH  089%=      5-min Rain = 0
KSE2 110917Z 19006KT 16/15 A2996 RMK A01 T01640146  RH  089%=      5-min Rain = 0
KSE2 110918Z 19007KT 16/15 A2996 RMK A01 T01640146  RH  089%=      5-min Rain = 0
KSE2 110919Z 18007KT 16/15 A2996 RMK A01 T01640146  RH  089%=      5-min Rain = 0
KSE2 110920Z 19009KT 16/15 A2996 RMK A01 T01640146  RH  089%=      5-min Rain = 0
KSE2 110921Z 18007KT 16/15 A2996 RMK A01 T01640146  RH  089%=      5-min Rain = 0
KSE2 110922Z 19009KT 16/15 A2996 RMK A01 T01640146  RH  089%=      5-min Rain = 0
KSE2 110923Z 18007KT 16/15 A2996 RMK A01 T01640146  RH  089%=      5-min Rain = 0
KSE2 110924Z 18008KT 16/15 A2996 RMK A01 T01640147  RH  089%=      5-min Rain = 0
KSE2 110925Z 19009KT 16/15 A2996 RMK A01 T01640147  RH  089%=      5-min Rain = 0
KSE2 110926Z 19006KT 16/15 A2996 RMK A01 T01640146  RH  089%=      5-min Rain = 0
KSE2 110927Z 19011KT 16/15 A2996 RMK A01 T01640147  RH  089%=      5-min Rain = 0
KSE2 110928Z 18008KT 16/15 A2996 RMK A01 T01640146  RH  089%=      5-min Rain = 0
KSE2 110929Z 18008KT 16/15 A2996 RMK A01 T01640146  RH  089%=      5-min Rain = 0
KSE2 110930Z 19007KT 16/15 A2996 RMK A01 T01640146  RH  089%=      5-min Rain = 0
KSE2 110931Z 18006KT 16/15 A2996 RMK A01 T01640146  RH  089%=      5-min Rain = 0
KSE2 110932Z 19009KT 16/15 A2996 RMK A01 T01640146  RH  089%=      5-min Rain = 0
KSE2 110933Z 19007KT 16/15 A2996 RMK A01 T01640146  RH  089%=      5-min Rain = 0
KSE2 110934Z 18008KT 16/15 A2996 RMK A01 T01640146  RH  089%=      5-min Rain = 0
KSE2 110935Z 18007KT 16/15 A2996 RMK A01 T01640146  RH  089%=      5-min Rain = 0
KSE2 110936Z 18009KT 16/15 A2996 RMK A01 T01640146  RH  089%=      5-min Rain = 0
KSE2 110937Z 19008KT 16/15 A2996 RMK A01 T01640146  RH  089%=      5-min Rain = 0
KSE2 110938Z 19009KT 16/15 A2996 RMK A01 T01640146  RH  089%=      5-min Rain = 0
KSE2 110939Z 19008KT 16/15 A2996 RMK A01 T01640146  RH  089%=      5-min Rain = 0
KSE2 110940Z 18007KT 16/15 A2996 RMK A01 T01640146  RH  089%=      5-min Rain = 0
KSE2 110941Z 18005KT 16/15 A2996 RMK A01 T01640146  RH  089%=      5-min Rain = 0
KSE2 110942Z 19005KT 16/15 A2996 RMK A01 T01640146  RH  089%=      5-min Rain = 0
KSE2 110943Z 18009KT 16/15 A2996 RMK A01 T01640146  RH  089%=      5-min Rain = 0
KSE2 110944Z 18009KT 16/15 A2996 RMK A01 T01640146  RH  089%=      5-min Rain = 0
KSE2 110945Z 19009KT 16/15 A2996 RMK A01 T01640146  RH  089%=      5-min Rain = 0
KSE2 110946Z 18006KT 16/15 A2996 RMK A01 T01640146  RH  089%=      5-min Rain = 0
KSE2 110947Z 18010KT 16/15 A2996 RMK A01 T01640146  RH  089%=      5-min Rain = 0
KSE2 110948Z 19009KT 16/15 A2996 RMK A01 T01640146  RH  089%=      5-min Rain = 0
KSE2 110949Z 19008KT 16/15 A2996 RMK A01 T01640146  RH  089%=      5-min Rain = 0
KSE2 110950Z 19008KT 16/15 A2996 RMK A01 T01640146  RH  089%=      5-min Rain = 0
KSE2 110951Z 19008KT 16/15 A2996 RMK A01 T01640146  RH  089%=      5-min Rain = 0
KSE2 110952Z 19009KT 16/15 A2996 RMK A01 T01640146  RH  089%=      5-min Rain = 0
KSE2 110953Z 19010KT 16/15 A2996 RMK A01 T01640146  RH  089%=      5-min Rain = 0
KSE2 110954Z 19010G15KT 16/15 A2996 RMK A01 T01640146  RH  089%=      5-min Rain = 0
KSE2 110955Z 17009KT 16/15 A2996 RMK A01 T01640146  RH  089%=      5-min Rain = 0
KSE2 110956Z 18008KT 16/15 A2996 RMK A01 T01640146  RH  089%=      5-min Rain = 0
KSE2 110957Z 18009KT 16/15 A2996 RMK A01 T01640146  RH  089%=      5-min Rain = 0
KSE2 110958Z 18010KT 16/15 A2996 RMK A01 T01640146  RH  089%=      5-min Rain = 0
KSE2 110959Z 20009KT 16/15 A2996 RMK A01 T01640146  RH  089%=      5-min Rain = 0
KSE2 111000Z 19006KT 16/15 A2996 RMK A01 T01640146  RH  089%=      5-min Rain = 0
KSE2 111001Z 19006KT 16/15 A2996 RMK A01 T01640146  RH  089%=      5-min Rain = 0
KSE2 111002Z 19007KT 16/15 A2996 RMK A01 T01640146  RH  089%=      5-min Rain = 0
KSE2 111003Z 18008KT 16/15 A2996 RMK A01 T01640146  RH  089%=      5-min Rain = 0
KSE2 111004Z 18007KT 16/15 A2996 RMK A01 T01640146  RH  089%=      5-min Rain = 0
KSE2 111005Z 19011KT 16/15 A2996 RMK A01 T01640146  RH  089%=      5-min Rain = 0
KSE2 111006Z 18008KT 16/15 A2996 RMK A01 T01640146  RH  089%=      5-min Rain = 0
KSE2 111007Z 19010KT 16/15 A2996 RMK A01 T01640146  RH  089%=      5-min Rain = 0
KSE2 111008Z 19008KT 16/15 A2996 RMK A01 T01640146  RH  089%=      5-min Rain = 0
KSE2 111009Z 19008KT 16/15 A2996 RMK A01 T01640146  RH  089%=      5-min Rain = 0
KSE2 111010Z 19008KT 16/15 A2996 RMK A01 T01640146  RH  089%=      5-min Rain = 0
KSE2 111011Z 19007KT 16/15 A2996 RMK A01 T01640146  RH  089%=      5-min Rain = 0
KSE2 111012Z 19007KT 16/15 A2996 RMK A01 T01640146  RH  089%=      5-min Rain = 0
KSE2 111013Z 19007G12KT 16/15 A2996 RMK A01 T01640146  RH  089%=      5-min Rain = 0
KSE2 111014Z 19007KT 16/15 A2996 RMK A01 T01640146  RH  089%=      5-min Rain = 0
KSE2 111015Z 19008KT 16/15 A2996 RMK A01 T01640146  RH  089%=      5-min Rain = 0
KSE2 111016Z 20010KT 16/15 A2996 RMK A01 T01640146  RH  089%=      5-min Rain = 0
KSE2 111017Z 18009KT 16/15 A2996 RMK A01 T01640146  RH  089%=      5-min Rain = 0
KSE2 111018Z 18009KT 16/15 A2996 RMK A01 T01640146  RH  089%=      5-min Rain = 0
KSE2 111019Z 19010KT 16/15 A2996 RMK A01 T01640146  RH  089%=      5-min Rain = 0
KSE2 111020Z 19008KT 16/15 A2996 RMK A01 T01640147  RH  089%=      5-min Rain = 0
KSE2 111021Z 20008KT 17/15 A2996 RMK A01 T01650147  RH  089%=      5-min Rain = 0
KSE2 111022Z 19008KT 17/15 A2996 RMK A01 T01650147  RH  089%=      5-min Rain = 0
KSE2 111023Z 19010KT 17/15 A2996 RMK A01 T01650147  RH  089%=      5-min Rain = 0
KSE2 111024Z 19008KT 17/15 A2996 RMK A01 T01650147  RH  089%=      5-min Rain = 0
KSE2 111025Z 20010KT 17/15 A2996 RMK A01 T01650147  RH  089%=      5-min Rain = 0
KSE2 111026Z 18008KT 17/15 A2996 RMK A01 T01650147  RH  089%=      5-min Rain = 0
KSE2 111027Z 19007KT 17/15 A2996 RMK A01 T01650147  RH  089%=      5-min Rain = 0
KSE2 111028Z 19007KT 17/15 A2996 RMK A01 T01650147  RH  089%=      5-min Rain = 0
KSE2 111029Z 18007KT 17/15 A2996 RMK A01 T01650147  RH  089%=      5-min Rain = 0
KSE2 111030Z 19007KT 17/15 A2996 RMK A01 T01650147  RH  089%=      5-min Rain = 0
KSE2 111031Z 19009KT 17/15 A2996 RMK A01 T01650147  RH  089%=      5-min Rain = 0
KSE2 111032Z 20009KT 17/15 A2996 RMK A01 T01650147  RH  089%=      5-min Rain = 0
KSE2 111033Z 19009KT 17/15 A2996 RMK A01 T01650147  RH  089%=      5-min Rain = 0
KSE2 111034Z 20009KT 17/15 A2996 RMK A01 T01650147  RH  089%=      5-min Rain = 0
KSE2 111035Z 20009KT 17/15 A2996 RMK A01 T01650147  RH  089%=      5-min Rain = 0
KSE2 111036Z 19010KT 17/15 A2996 RMK A01 T01660148  RH  089%=      5-min Rain = 0
KSE2 111037Z 19008KT 17/15 A2996 RMK A01 T01650147  RH  089%=      5-min Rain = 0
KSE2 111038Z 20007KT 17/15 A2996 RMK A01 T01660148  RH  089%=      5-min Rain = 0
KSE2 111039Z 20008KT 17/15 A2996 RMK A01 T01650147  RH  089%=      5-min Rain = 0
KSE2 111040Z 19007KT 17/15 A2996 RMK A01 T01650147  RH  089%=      5-min Rain = 0
KSE2 111041Z 19008KT 17/15 A2996 RMK A01 T01660147  RH  089%=      5-min Rain = 0
KSE2 111042Z 19008KT 17/15 A2996 RMK A01 T01660148  RH  089%=      5-min Rain = 0
KSE2 111043Z 19009KT 17/15 A2996 RMK A01 T01660148  RH  089%=      5-min Rain = 0
KSE2 111044Z 19009KT 17/15 A2997 RMK A01 T01660148  RH  089%=      5-min Rain = 0
KSE2 111045Z 20010KT 17/15 A2997 RMK A01 T01650147  RH  089%=      5-min Rain = 0
KSE2 111046Z 20009KT 17/15 A2997 RMK A01 T01650147  RH  089%=      5-min Rain = 0
KSE2 111047Z 19009KT 17/15 A2997 RMK A01 T01660147  RH  089%=      5-min Rain = 0
KSE2 111048Z 20007KT 17/15 A2997 RMK A01 T01660148  RH  089%=      5-min Rain = 0
KSE2 111049Z 20008KT 17/15 A2996 RMK A01 T01660148  RH  089%=      5-min Rain = 0
KSE2 111050Z 20007KT 17/15 A2996 RMK A01 T01660148  RH  089%=      5-min Rain = 0
KSE2 111051Z 19009KT 17/15 A2997 RMK A01 T01660148  RH  089%=      5-min Rain = 0
KSE2 111052Z 20008KT 17/15 A2997 RMK A01 T01660148  RH  089%=      5-min Rain = 0
KSE2 111053Z 20005KT 17/15 A2997 RMK A01 T01660148  RH  089%=      5-min Rain = 0
KSE2 111054Z 19007KT 17/15 A2997 RMK A01 T01660148  RH  089%=      5-min Rain = 0
KSE2 111055Z 19006KT 17/15 A2996 RMK A01 T01660148  RH  089%=      5-min Rain = 0
KSE2 111056Z 19008KT 17/15 A2996 RMK A01 T01660148  RH  089%=      5-min Rain = 0
KSE2 111057Z 20006KT 17/15 A2996 RMK A01 T01660148  RH  089%=      5-min Rain = 0
KSE2 111058Z 19006KT 17/15 A2996 RMK A01 T01660148  RH  089%=      5-min Rain = 0
KSE2 111059Z 20006KT 17/15 A2996 RMK A01 T01660148  RH  089%=      5-min Rain = 0
KSE2 111100Z 20007KT 17/15 A2996 RMK A01 T01660148  RH  089%=      5-min Rain = 0
KSE2 111101Z 20007KT 17/15 A2997 RMK A01 T01660148  RH  089%=      5-min Rain = 0
KSE2 111102Z 19008KT 17/15 A2997 RMK A01 T01660148  RH  089%=      5-min Rain = 0
KSE2 111103Z 19009KT 17/15 A2997 RMK A01 T01660148  RH  089%=      5-min Rain = 0
KSE2 111104Z 19009KT 17/15 A2997 RMK A01 T01660148  RH  089%=      5-min Rain = 0
KSE2 111105Z 19009KT 17/15 A2997 RMK A01 T01660148  RH  089%=      5-min Rain = 0
KSE2 111106Z 20008KT 17/15 A2997 RMK A01 T01660148  RH  089%=      5-min Rain = 0
KSE2 111107Z 20009KT 17/15 A2996 RMK A01 T01660148  RH  089%=      5-min Rain = 0
KSE2 111108Z 19006KT 17/15 A2997 RMK A01 T01660148  RH  089%=      5-min Rain = 0
KSE2 111109Z 18007KT 17/15 A2997 RMK A01 T01660148  RH  089%=      5-min Rain = 0
KSE2 111110Z 20007KT 17/15 A2997 RMK A01 T01660148  RH  089%=      5-min Rain = 0
KSE2 111111Z 20010KT 17/15 A2997 RMK A01 T01660148  RH  089%=      5-min Rain = 0
KSE2 111112Z 19011KT 17/15 A2997 RMK A01 T01660148  RH  089%=      5-min Rain = 0
KSE2 111113Z 20010KT 17/15 A2997 RMK A01 T01660148  RH  089%=      5-min Rain = 0
KSE2 111114Z 20009KT 17/15 A2997 RMK A01 T01660148  RH  089%=      5-min Rain = 0
KSE2 111115Z 20009KT 17/15 A2997 RMK A01 T01660148  RH  089%=      5-min Rain = 0
KSE2 111116Z 20007KT 17/15 A2997 RMK A01 T01660148  RH  089%=      5-min Rain = 0
KSE2 111117Z 20006KT 17/15 A2997 RMK A01 T01660148  RH  089%=      5-min Rain = 0
KSE2 111118Z 18008KT 17/15 A2997 RMK A01 T01660148  RH  089%=      5-min Rain = 0
KSE2 111119Z 20006KT 17/15 A2997 RMK A01 T01660148  RH  089%=      5-min Rain = 0
KSE2 111120Z 18007KT 17/15 A2997 RMK A01 T01660148  RH  089%=      5-min Rain = 0
KSE2 111121Z 20006KT 17/15 A2997 RMK A01 T01660148  RH  089%=      5-min Rain = 0
KSE2 111122Z 20007KT 17/15 A2997 RMK A01 T01660148  RH  089%=      5-min Rain = 0
KSE2 111123Z 20008KT 17/15 A2997 RMK A01 T01660148  RH  089%=      5-min Rain = 0
KSE2 111124Z 20006KT 17/15 A2997 RMK A01 T01660148  RH  089%=      5-min Rain = 0
KSE2 111125Z 19007KT 17/15 A2997 RMK A01 T01660148  RH  089%=      5-min Rain = 0
KSE2 111126Z 20007KT 17/15 A2997 RMK A01 T01660148  RH  089%=      5-min Rain = 0
KSE2 111127Z 20009KT 17/15 A2997 RMK A01 T01660148  RH  089%=      5-min Rain = 0
KSE2 111128Z 20008KT 17/15 A2997 RMK A01 T01660148  RH  089%=      5-min Rain = 0
KSE2 111129Z 20008KT 17/15 A2997 RMK A01 T01660148  RH  089%=      5-min Rain = 0
KSE2 111130Z 20009KT 17/15 A2997 RMK A01 T01660148  RH  089%=      5-min Rain = 0
KSE2 111131Z 20008KT 17/15 A2997 RMK A01 T01660148  RH  089%=      5-min Rain = 0
KSE2 111132Z 20008KT 17/15 A2997 RMK A01 T01660148  RH  089%=      5-min Rain = 0
KSE2 111133Z 20010KT 17/15 A2997 RMK A01 T01660148  RH  089%=      5-min Rain = 0
KSE2 111134Z 20006G11KT 17/15 A2997 RMK A01 T01660149  RH  089%=      5-min Rain = 0
KSE2 111135Z 21006KT 17/15 A2997 RMK A01 T01660148  RH  089%=      5-min Rain = 0
KSE2 111136Z 20009KT 17/15 A2997 RMK A01 T01660149  RH  089%=      5-min Rain = 0
KSE2 111137Z 20009KT 17/15 A2997 RMK A01 T01660148  RH  089%=      5-min Rain = 0
KSE2 111138Z 21007KT 17/15 A2997 RMK A01 T01660148  RH  089%=      5-min Rain = 0
KSE2 111139Z 21006KT 17/15 A2997 RMK A01 T01660148  RH  089%=      5-min Rain = 0
KSE2 111140Z 20006KT 17/15 A2997 RMK A01 T01660148  RH  089%=      5-min Rain = 0
KSE2 111141Z 20009KT 17/15 A2997 RMK A01 T01660149  RH  089%=      5-min Rain = 0
KSE2 111142Z 21006KT 17/15 A2998 RMK A01 T01660149  RH  089%=      5-min Rain = 0
KSE2 111143Z 20008KT 17/15 A2998 RMK A01 T01660148  RH  089%=      5-min Rain = 0
KSE2 111144Z 20008KT 17/15 A2998 RMK A01 T01660149  RH  089%=      5-min Rain = 0
KSE2 111145Z 20007KT 17/15 A2998 RMK A01 T01660148  RH  089%=      5-min Rain = 0
KSE2 111146Z 20008KT 17/15 A2998 RMK A01 T01660149  RH  089%=      5-min Rain = 0
KSE2 111147Z 19007KT 17/15 A2997 RMK A01 T01660148  RH  089%=      5-min Rain = 0
KSE2 111148Z 20007KT 17/15 A2997 RMK A01 T01660148  RH  089%=      5-min Rain = 0
KSE2 111149Z 19006KT 17/15 A2997 RMK A01 T01660148  RH  089%=      5-min Rain = 0
KSE2 111150Z 20008KT 17/15 A2997 RMK A01 T01660149  RH  089%=      5-min Rain = 0
KSE2 111151Z 19007KT 17/15 A2997 RMK A01 T01660149  RH  089%=      5-min Rain = 0
KSE2 111152Z 20007KT 17/15 A2998 RMK A01 T01660148  RH  089%=      5-min Rain = 0
KSE2 111153Z 19007KT 17/15 A2998 RMK A01 T01660149  RH  089%=      5-min Rain = 0
KSE2 111154Z 19006KT 17/15 A2998 RMK A01 T01660149  RH  089%=      5-min Rain = 0
KSE2 111155Z 19006KT 17/15 A2998 RMK A01 T01660149  RH  089%=      5-min Rain = 0
KSE2 111156Z 19007KT 17/15 A2997 RMK A01 T01660149  RH  090%=      5-min Rain = 0
KSE2 111157Z 19007KT 17/15 A2997 RMK A01 T01660149  RH  090%=      5-min Rain = 0
KSE2 111158Z 17005KT 17/15 A2997 RMK A01 T01660149  RH  090%=      5-min Rain = 0
KSE2 111159Z 19005KT 17/15 A2997 RMK A01 T01660149  RH  090%=      5-min Rain = 0
KSE2 111200Z 18007KT 17/15 A2997 RMK A01 T01660149  RH  090%=      5-min Rain = 0
KSE2 111201Z 19009KT 17/15 A2997 RMK A01 T01660149  RH  090%=      5-min Rain = 0
KSE2 111202Z 18005KT 17/15 A2997 RMK A01 T01660149  RH  090%=      5-min Rain = 0
KSE2 111203Z 18006KT 17/15 A2997 RMK A01 T01660149  RH  090%=      5-min Rain = 0
KSE2 111204Z 19007KT 17/15 A2997 RMK A01 T01660149  RH  090%=      5-min Rain = 0
KSE2 111205Z 20007KT 17/15 A2997 RMK A01 T01660149  RH  090%=      5-min Rain = 0
KSE2 111206Z 19005KT 17/15 A2998 RMK A01 T01660149  RH  090%=      5-min Rain = 0
KSE2 111207Z 18005KT 17/15 A2998 RMK A01 T01660149  RH  090%=      5-min Rain = 0
KSE2 111208Z 18007KT 17/15 A2998 RMK A01 T01660149  RH  090%=      5-min Rain = 0
KSE2 111209Z 18005KT 17/15 A2998 RMK A01 T01660149  RH  090%=      5-min Rain = 0
KSE2 111210Z 18005KT 17/15 A2998 RMK A01 T01660149  RH  090%=      5-min Rain = 0
KSE2 111211Z 19006KT 17/15 A2998 RMK A01 T01660149  RH  090%=      5-min Rain = 0
KSE2 111212Z 19006KT 17/15 A2998 RMK A01 T01660149  RH  090%=      5-min Rain = 0
KSE2 111213Z 18006KT 17/15 A2998 RMK A01 T01660149  RH  090%=      5-min Rain = 0
KSE2 111214Z 19006KT 17/15 A2998 RMK A01 T01650149  RH  090%=      5-min Rain = 0
KSE2 111215Z 19008KT 17/15 A2998 RMK A01 T01660149  RH  090%=      5-min Rain = 0
KSE2 111216Z 18006KT 17/15 A2998 RMK A01 T01650149  RH  090%=      5-min Rain = 0
KSE2 111217Z 19007KT 17/15 A2998 RMK A01 T01660149  RH  090%=      5-min Rain = 0
KSE2 111218Z 19007KT 17/15 A2998 RMK A01 T01650149  RH  090%=      5-min Rain = 0
KSE2 111219Z 18010KT 17/15 A2998 RMK A01 T01660149  RH  090%=      5-min Rain = 0
KSE2 111220Z 19008KT 17/15 A2998 RMK A01 T01650149  RH  090%=      5-min Rain = 0
KSE2 111221Z 19009KT 17/15 A2998 RMK A01 T01660149  RH  090%=      5-min Rain = 0
KSE2 111222Z 19008KT 17/15 A2998 RMK A01 T01660149  RH  090%=      5-min Rain = 0
KSE2 111223Z 19009KT 17/15 A2998 RMK A01 T01660149  RH  090%=      5-min Rain = 0
KSE2 111224Z 19008KT 17/15 A2998 RMK A01 T01650149  RH  090%=      5-min Rain = 0
KSE2 111225Z 19006KT 17/15 A2998 RMK A01 T01660149  RH  090%=      5-min Rain = 0
KSE2 111226Z 19006KT 17/15 A2998 RMK A01 T01660149  RH  090%=      5-min Rain = 0
KSE2 111227Z 19005KT 17/15 A2998 RMK A01 T01660149  RH  090%=      5-min Rain = 0
KSE2 111228Z 20008KT 17/15 A2998 RMK A01 T01650149  RH  090%=      5-min Rain = 0
KSE2 111229Z 19008KT 17/15 A2998 RMK A01 T01660149  RH  090%=      5-min Rain = 0
KSE2 111230Z 20008KT 17/15 A2998 RMK A01 T01650149  RH  090%=      5-min Rain = 0
KSE2 111231Z 19009KT 17/15 A2998 RMK A01 T01650149  RH  090%=      5-min Rain = 0
KSE2 111232Z 19009KT 17/15 A2998 RMK A01 T01660149  RH  090%=      5-min Rain = 0
KSE2 111233Z 19008KT 17/15 A2998 RMK A01 T01660149  RH  090%=      5-min Rain = 0
KSE2 111234Z 19007KT 17/15 A2998 RMK A01 T01660149  RH  090%=      5-min Rain = 0
KSE2 111235Z 19006KT 17/15 A2998 RMK A01 T01660149  RH  090%=      5-min Rain = 0
KSE2 111236Z 19006KT 17/15 A2998 RMK A01 T01660149  RH  090%=      5-min Rain = 0
KSE2 111237Z 19007KT 17/15 A2998 RMK A01 T01660149  RH  090%=      5-min Rain = 0
KSE2 111238Z 19006KT 17/15 A2998 RMK A01 T01660149  RH  090%=      5-min Rain = 0
KSE2 111239Z 18007KT 17/15 A2998 RMK A01 T01660150  RH  090%=      5-min Rain = 0
KSE2 111240Z 20008KT 17/15 A2998 RMK A01 T01660149  RH  090%=      5-min Rain = 0
KSE2 111241Z 19007KT 17/15 A2998 RMK A01 T01660149  RH  090%=      5-min Rain = 0
KSE2 111242Z 19009KT 17/15 A2998 RMK A01 T01650149  RH  090%=      5-min Rain = 0
KSE2 111243Z 19007KT 17/15 A2998 RMK A01 T01650149  RH  090%=      5-min Rain = 0
KSE2 111244Z 20007KT 17/15 A2998 RMK A01 T01660149  RH  090%=      5-min Rain = 0
KSE2 111245Z 19009KT 17/15 A2998 RMK A01 T01660150  RH  090%=      5-min Rain = 0
KSE2 111246Z 19008KT 17/15 A2998 RMK A01 T01660149  RH  090%=      5-min Rain = 0
KSE2 111247Z 19008KT 17/15 A2998 RMK A01 T01660150  RH  090%=      5-min Rain = 0
KSE2 111248Z 19007KT 17/15 A2998 RMK A01 T01660150  RH  090%=      5-min Rain = 0
KSE2 111249Z 19010KT 17/15 A2998 RMK A01 T01660150  RH  090%=      5-min Rain = 0
KSE2 111250Z 19006KT 17/15 A2998 RMK A01 T01660149  RH  090%=      5-min Rain = 0
KSE2 111251Z 19007KT 17/15 A2998 RMK A01 T01660149  RH  090%=      5-min Rain = 0
KSE2 111252Z 19008KT 17/15 A2998 RMK A01 T01650149  RH  090%=      5-min Rain = 0
KSE2 111253Z 19007KT 17/15 A2998 RMK A01 T01660150  RH  090%=      5-min Rain = 0
KSE2 111254Z 18006KT 17/15 A2998 RMK A01 T01650150  RH  090%=      5-min Rain = 0
KSE2 111255Z 19007KT 17/15 A2998 RMK A01 T01660150  RH  090%=      5-min Rain = 0
KSE2 111256Z 19009KT 17/15 A2998 RMK A01 T01650150  RH  090%=      5-min Rain = 0
KSE2 111257Z 19008KT 17/15 A2998 RMK A01 T01660150  RH  090%=      5-min Rain = 0
KSE2 111258Z 19008KT 17/15 A2998 RMK A01 T01660150  RH  090%=      5-min Rain = 0
KSE2 111259Z 19008KT 17/15 A2998 RMK A01 T01650150  RH  090%=      5-min Rain = 0
KSE2 111300Z 19009KT 17/15 A2999 RMK A01 T01660150  RH  090%=      5-min Rain = 0
KSE2 111301Z 20008KT 17/15 A2999 RMK A01 T01660150  RH  090%=      5-min Rain = 0
KSE2 111302Z 20008KT 17/15 A2999 RMK A01 T01660150  RH  090%=      5-min Rain = 0
KSE2 111303Z 20007KT 17/15 A2999 RMK A01 T01650150  RH  090%=      5-min Rain = 0
KSE2 111304Z 20008KT 17/15 A2999 RMK A01 T01660150  RH  090%=      5-min Rain = 0
KSE2 111305Z 20008KT 17/15 A2999 RMK A01 T01660150  RH  090%=      5-min Rain = 0
KSE2 111306Z 20007KT 17/15 A2999 RMK A01 T01660150  RH  090%=      5-min Rain = 0
KSE2 111307Z 20008KT 17/15 A2999 RMK A01 T01660150  RH  090%=      5-min Rain = 0
KSE2 111308Z 20007KT 17/15 A2999 RMK A01 T01660150  RH  091%=      5-min Rain = 0
KSE2 111309Z 20007KT 17/15 A2999 RMK A01 T01660150  RH  091%=      5-min Rain = 0
KSE2 111310Z 19006KT 17/15 A2999 RMK A01 T01660150  RH  091%=      5-min Rain = 0
KSE2 111311Z 19008KT 17/15 A2999 RMK A01 T01650150  RH  091%=      5-min Rain = 0
KSE2 111312Z 19009KT 17/15 A2999 RMK A01 T01650150  RH  091%=      5-min Rain = 0
KSE2 111313Z 19007KT 17/15 A2999 RMK A01 T01660151  RH  091%=      5-min Rain = 0
KSE2 111314Z 20007KT 17/15 A2999 RMK A01 T01650150  RH  091%=      5-min Rain = 0
KSE2 111315Z 19007KT 17/15 A2999 RMK A01 T01660150  RH  091%=      5-min Rain = 0
KSE2 111316Z 19009KT 17/15 A2999 RMK A01 T01660150  RH  091%=      5-min Rain = 0
KSE2 111317Z 20006KT 17/15 A2999 RMK A01 T01660150  RH  091%=      5-min Rain = 0
KSE2 111318Z 19006KT 17/15 A2999 RMK A01 T01660151  RH  091%=      5-min Rain = 0
KSE2 111319Z 19006KT 17/15 A2999 RMK A01 T01660151  RH  091%=      5-min Rain = 0
KSE2 111320Z 19008KT 17/15 A2999 RMK A01 T01660151  RH  091%=      5-min Rain = 0
KSE2 111321Z 19007KT 17/15 A2999 RMK A01 T01660151  RH  091%=      5-min Rain = 0
KSE2 111322Z 18006KT 17/15 A2999 RMK A01 T01660151  RH  091%=      5-min Rain = 0
KSE2 111323Z 20005KT 17/15 A2999 RMK A01 T01660151  RH  091%=      5-min Rain = 0
KSE2 111324Z 19004KT 17/15 A2999 RMK A01 T01660151  RH  091%=      5-min Rain = 0
KSE2 111325Z 19007KT 17/15 A2999 RMK A01 T01660151  RH  091%=      5-min Rain = 0
KSE2 111326Z 20008KT 17/15 A2999 RMK A01 T01650150  RH  091%=      5-min Rain = 0
KSE2 111327Z 20007KT 17/15 A2999 RMK A01 T01660151  RH  091%=      5-min Rain = 0
KSE2 111328Z 20006KT 17/15 A2999 RMK A01 T01660151  RH  091%=      5-min Rain = 0
KSE2 111329Z 21005KT 17/15 A2999 RMK A01 T01660151  RH  091%=      5-min Rain = 0
KSE2 111330Z 20008KT 17/15 A2999 RMK A01 T01660151  RH  091%=      5-min Rain = 0
KSE2 111331Z 21009KT 17/15 A2999 RMK A01 T01660151  RH  091%=      5-min Rain = 0
KSE2 111332Z 20008KT 17/15 A2999 RMK A01 T01660151  RH  091%=      5-min Rain = 0
KSE2 111333Z 20008KT 17/15 A30 RMK A01 T01660151  RH  091%=      5-min Rain = 0
KSE2 111334Z 20008KT 17/15 A30 RMK A01 T01660151  RH  091%=      5-min Rain = 0
KSE2 111335Z 20008KT 17/15 A30 RMK A01 T01660151  RH  091%=      5-min Rain = 0
KSE2 111336Z 20007KT 17/15 A30 RMK A01 T01660151  RH  091%=      5-min Rain = 0
KSE2 111337Z 21008KT 17/15 A30 RMK A01 T01660151  RH  091%=      5-min Rain = 0
KSE2 111338Z 21006G11KT 17/15 A30 RMK A01 T01660151  RH  091%=      5-min Rain = 0
KSE2 111339Z 20010KT 17/15 A30 RMK A01 T01660151  RH  091%=      5-min Rain = 0
KSE2 111340Z 20009KT 17/15 A30 RMK A01 T01660151  RH  091%=      5-min Rain = 0
KSE2 111341Z 21008KT 17/15 A30 RMK A01 T01660151  RH  091%=      5-min Rain = 0
KSE2 111342Z 21008KT 17/15 A30 RMK A01 T01660151  RH  091%=      5-min Rain = 0
KSE2 111343Z 22009KT 17/15 A3001 RMK A01 T01660151  RH  091%=      5-min Rain = 0
KSE2 111344Z 21008KT 17/15 A3001 RMK A01 T01660151  RH  091%=      5-min Rain = 0
KSE2 111345Z 20008KT 17/15 A3001 RMK A01 T01670152  RH  091%=      5-min Rain = 0
KSE2 111346Z 21009KT 17/15 A3001 RMK A01 T01660151  RH  091%=      5-min Rain = 0
KSE2 111347Z 19007KT 17/15 A3001 RMK A01 T01660151  RH  091%=      5-min Rain = 0
KSE2 111348Z 21008KT 17/15 A3001 RMK A01 T01660152  RH  091%=      5-min Rain = 0
KSE2 111349Z 21007KT 17/15 A3001 RMK A01 T01660151  RH  091%=      5-min Rain = 0
KSE2 111350Z 21007KT 17/15 A3001 RMK A01 T01660151  RH  091%=      5-min Rain = 0
KSE2 111351Z 23006KT 17/15 A3001 RMK A01 T01670152  RH  091%=      5-min Rain = 0
KSE2 111352Z 21005KT 17/15 A3001 RMK A01 T01670152  RH  091%=      5-min Rain = 0
KSE2 111353Z 21005KT 17/15 A3001 RMK A01 T01660151  RH  091%=      5-min Rain = 0
KSE2 111354Z 20006KT 17/15 A3001 RMK A01 T01670152  RH  091%=      5-min Rain = 0
KSE2 111355Z 20006KT 17/15 A3001 RMK A01 T01670152  RH  091%=      5-min Rain = 0
KSE2 111356Z 20005KT 17/15 A3001 RMK A01 T01670152  RH  091%=      5-min Rain = 0
KSE2 111357Z 20006KT 17/15 A3001 RMK A01 T01670152  RH  091%=      5-min Rain = 0
KSE2 111358Z 20006KT 17/15 A3001 RMK A01 T01670152  RH  091%=      5-min Rain = 0
KSE2 111359Z 21007KT 17/15 A3001 RMK A01 T01670152  RH  091%=      5-min Rain = 0
KSE2 111400Z 19006KT 17/15 A3001 RMK A01 T01670152  RH  091%=      5-min Rain = 0
KSE2 111401Z 20008KT 17/15 A3001 RMK A01 T01670152  RH  091%=      5-min Rain = 0
KSE2 111402Z 20009KT 17/15 A30 RMK A01 T01680153  RH  091%=      5-min Rain = 0
KSE2 111403Z 20007KT 17/15 A3001 RMK A01 T01670152  RH  091%=      5-min Rain = 0
KSE2 111404Z 20009KT 17/15 A30 RMK A01 T01680153  RH  091%=      5-min Rain = 0
KSE2 111405Z 20008KT 17/15 A30 RMK A01 T01680153  RH  091%=      5-min Rain = 0
KSE2 111406Z 20010KT 17/15 A30 RMK A01 T01670153  RH  091%=      5-min Rain = 0
KSE2 111407Z 21009KT 17/15 A30 RMK A01 T01670153  RH  091%=      5-min Rain = 0
KSE2 111408Z 20008KT 17/15 A30 RMK A01 T01670153  RH  091%=      5-min Rain = 0
KSE2 111409Z 20010KT 17/15 A30 RMK A01 T01680153  RH  091%=      5-min Rain = 0
KSE2 111410Z 20010KT 17/15 A30 RMK A01 T01670153  RH  091%=      5-min Rain = 0
KSE2 111411Z 21012KT 17/15 A30 RMK A01 T01670153  RH  091%=      5-min Rain = 0
KSE2 111412Z 20008G14KT 17/15 A3001 RMK A01 T01670153  RH  091%=      5-min Rain = 0
KSE2 111413Z 20009KT 17/15 A30 RMK A01 T01670153  RH  091%=      5-min Rain = 0
KSE2 111414Z 22008KT 17/15 A30 RMK A01 T01670153  RH  091%=      5-min Rain = 0
KSE2 111415Z 20010KT 17/15 A30 RMK A01 T01680153  RH  091%=      5-min Rain = 0
KSE2 111416Z 21009KT 17/15 A3001 RMK A01 T01680154  RH  091%=      5-min Rain = 0
KSE2 111417Z 20007KT 17/15 A3001 RMK A01 T01680153  RH  091%=      5-min Rain = 0
KSE2 111418Z 19009KT 17/15 A3001 RMK A01 T01680153  RH  091%=      5-min Rain = 0
KSE2 111419Z 21007KT 17/15 A3001 RMK A01 T01680154  RH  091%=      5-min Rain = 0
KSE2 111420Z 20009KT 17/15 A3001 RMK A01 T01680153  RH  091%=      5-min Rain = 0
KSE2 111421Z 21007G12KT 17/15 A3001 RMK A01 T01680153  RH  091%=      5-min Rain = 0
KSE2 111422Z 20007KT 17/15 A3001 RMK A01 T01680154  RH  091%=      5-min Rain = 0
KSE2 111423Z 20007KT 17/15 A3001 RMK A01 T01680154  RH  091%=      5-min Rain = 0
KSE2 111424Z 20008KT 17/15 A3001 RMK A01 T01680154  RH  091%=      5-min Rain = 0
KSE2 111425Z 20007KT 17/15 A3001 RMK A01 T01680154  RH  091%=      5-min Rain = 0
KSE2 111426Z 20007KT 17/15 A3001 RMK A01 T01690154  RH  091%=      5-min Rain = 0
KSE2 111427Z 21008KT 17/15 A3001 RMK A01 T01690154  RH  091%=      5-min Rain = 0
KSE2 111428Z 21009KT 17/15 A3001 RMK A01 T01690154  RH  091%=      5-min Rain = 0
KSE2 111429Z 21006KT 17/15 A3001 RMK A01 T01690154  RH  091%=      5-min Rain = 0
KSE2 111430Z 20010KT 17/15 A3002 RMK A01 T01690154  RH  091%=      5-min Rain = 0
KSE2 111431Z 21009KT 17/15 A3002 RMK A01 T01690154  RH  091%=      5-min Rain = 0
KSE2 111432Z 21006KT 17/15 A3002 RMK A01 T01690154  RH  091%=      5-min Rain = 0
KSE2 111433Z 20009KT 17/16 A3002 RMK A01 T01700155  RH  091%=      5-min Rain = 0
KSE2 111434Z 20008KT 17/16 A3002 RMK A01 T01700155  RH  091%=      5-min Rain = 0
KSE2 111435Z 20009G14KT 17/15 A3002 RMK A01 T01700154  RH  091%=      5-min Rain = 0
KSE2 111436Z 21010KT 17/15 A3002 RMK A01 T01700154  RH  091%=      5-min Rain = 0
KSE2 111437Z 21009G14KT 17/15 A3002 RMK A01 T01700154  RH  091%=      5-min Rain = 0
KSE2 111438Z 21011KT 17/15 A3002 RMK A01 T01700154  RH  091%=      5-min Rain = 0
KSE2 111439Z 20011G17KT 17/15 A3003 RMK A01 T01700154  RH  091%=      5-min Rain = 0
KSE2 111440Z 21010KT 17/15 A3003 RMK A01 T01700154  RH  090%=      5-min Rain = 0
KSE2 111441Z 21008KT 17/15 A3003 RMK A01 T01700154  RH  091%=      5-min Rain = 0
KSE2 111442Z 21007KT 17/15 A3003 RMK A01 T01700154  RH  091%=      5-min Rain = 0
KSE2 111443Z 22009G14KT 17/15 A3003 RMK A01 T01700154  RH  091%=      5-min Rain = 0
KSE2 111444Z 21010KT 17/15 A3003 RMK A01 T01700154  RH  091%=      5-min Rain = 0
KSE2 111445Z 22009KT 17/15 A3003 RMK A01 T01700154  RH  090%=      5-min Rain = 0
KSE2 111446Z 23008KT 17/15 A3003 RMK A01 T01700154  RH  091%=      5-min Rain = 0
KSE2 111447Z 22009KT 17/16 A3003 RMK A01 T01700155  RH  091%=      5-min Rain = 0
KSE2 111448Z 21008KT 17/15 A3003 RMK A01 T01700154  RH  090%=      5-min Rain = 0
KSE2 111449Z 21010KT 17/15 A3003 RMK A01 T01700154  RH  090%=      5-min Rain = 0
KSE2 111450Z 20009KT 17/15 A3003 RMK A01 T01700154  RH  090%=      5-min Rain = 0
KSE2 111451Z 21008KT 17/16 A3003 RMK A01 T01700155  RH  090%=      5-min Rain = 0
KSE2 111452Z 20008KT 17/16 A3003 RMK A01 T01710155  RH  090%=      5-min Rain = 0
KSE2 111453Z 20007KT 17/16 A3003 RMK A01 T01710155  RH  090%=      5-min Rain = 0
KSE2 111454Z 20007KT 17/16 A3003 RMK A01 T01710155  RH  090%=      5-min Rain = 0
KSE2 111455Z 21005KT 17/16 A3003 RMK A01 T01710155  RH  090%=      5-min Rain = 0
KSE2 111456Z 20005KT 17/16 A3003 RMK A01 T01720155  RH  090%=      5-min Rain = 0
KSE2 111457Z 20008KT 17/16 A3003 RMK A01 T01720156  RH  090%=      5-min Rain = 0
KSE2 111458Z 21009KT 17/16 A3003 RMK A01 T01720155  RH  090%=      5-min Rain = 0
KSE2 111459Z 20009G14KT 17/16 A3003 RMK A01 T01730155  RH  089%=      5-min Rain = 0
KSE2 111500Z 21010KT 17/16 A3003 RMK A01 T01720155  RH  089%=      5-min Rain = 0
KSE2 111501Z 22010KT 17/16 A3003 RMK A01 T01730155  RH  089%=      5-min Rain = 0
KSE2 111502Z 21012KT 17/16 A3003 RMK A01 T01720155  RH  089%=      5-min Rain = 0
KSE2 111503Z 22009KT 17/16 A3003 RMK A01 T01730155  RH  090%=      5-min Rain = 0
KSE2 111504Z 21011G17KT 17/16 A3004 RMK A01 T01720155  RH  090%=      5-min Rain = 0
KSE2 111505Z 21009G14KT 17/16 A3004 RMK A01 T01720155  RH  090%=      5-min Rain = 0
KSE2 111506Z 20009G14KT 17/16 A3004 RMK A01 T01720155  RH  090%=      5-min Rain = 0
KSE2 111507Z 21012KT 17/16 A3004 RMK A01 T01730156  RH  090%=      5-min Rain = 0
KSE2 111508Z 21010KT 17/16 A3004 RMK A01 T01730155  RH  089%=      5-min Rain = 0
KSE2 111509Z 21008G13KT 17/16 A3004 RMK A01 T01730156  RH  090%=      5-min Rain = 0
KSE2 111510Z 22009KT 17/16 A3004 RMK A01 T01730156  RH  089%=      5-min Rain = 0
KSE2 111511Z 21010KT 17/16 A3004 RMK A01 T01740156  RH  089%=      5-min Rain = 0
KSE2 111512Z 22009KT 17/16 A3004 RMK A01 T01740156  RH  089%=      5-min Rain = 0
KSE2 111513Z 22010KT 17/16 A3004 RMK A01 T01740156  RH  089%=      5-min Rain = 0
KSE2 111514Z 21009KT 17/16 A3004 RMK A01 T01740156  RH  089%=      5-min Rain = 0
KSE2 111515Z 21008KT 17/16 A3004 RMK A01 T01740156  RH  089%=      5-min Rain = 0
KSE2 111516Z 23006G12KT 18/16 A3004 RMK A01 T01750157  RH  089%=      5-min Rain = 0
KSE2 111517Z 22010KT 18/16 A3004 RMK A01 T01750156  RH  089%=      5-min Rain = 0
KSE2 111518Z 21009KT 18/16 A3005 RMK A01 T01750156  RH  089%=      5-min Rain = 0
KSE2 111519Z 21008KT 18/16 A3005 RMK A01 T01750157  RH  089%=      5-min Rain = 0
KSE2 111520Z 21008KT 18/16 A3004 RMK A01 T01750157  RH  089%=      5-min Rain = 0
KSE2 111521Z 22009KT 18/16 A3005 RMK A01 T01750157  RH  089%=      5-min Rain = 0
KSE2 111522Z 20007KT 18/16 A3005 RMK A01 T01750156  RH  089%=      5-min Rain = 0
KSE2 111523Z 21009KT 18/16 A3004 RMK A01 T01750156  RH  089%=      5-min Rain = 0
KSE2 111524Z 21008KT 18/16 A3004 RMK A01 T01760157  RH  089%=      5-min Rain = 0
KSE2 111525Z 21006KT 18/16 A3004 RMK A01 T01760157  RH  089%=      5-min Rain = 0
KSE2 111526Z 21008KT 18/16 A3004 RMK A01 T01760157  RH  088%=      5-min Rain = 0
KSE2 111527Z 21010KT 18/16 A3004 RMK A01 T01760157  RH  088%=      5-min Rain = 0
KSE2 111528Z 22009KT 18/16 A3004 RMK A01 T01770157  RH  088%=      5-min Rain = 0
KSE2 111529Z 20009KT 18/16 A3004 RMK A01 T01770156  RH  088%=      5-min Rain = 0
KSE2 111530Z 21008KT 18/16 A3004 RMK A01 T01770157  RH  088%=      5-min Rain = 0
KSE2 111531Z 20006KT 18/16 A3005 RMK A01 T01770157  RH  088%=      5-min Rain = 0
KSE2 111532Z 22007KT 18/16 A3005 RMK A01 T01770157  RH  088%=      5-min Rain = 0
KSE2 111533Z 23009KT 18/16 A3005 RMK A01 T01770157  RH  088%=      5-min Rain = 0
KSE2 111534Z 22009KT 18/16 A3005 RMK A01 T01770156  RH  087%=      5-min Rain = 0
KSE2 111535Z 21009KT 18/16 A3005 RMK A01 T01770157  RH  088%=      5-min Rain = 0
KSE2 111536Z 22007KT 18/16 A3005 RMK A01 T01770156  RH  088%=      5-min Rain = 0
KSE2 111537Z 21007KT 18/16 A3005 RMK A01 T01770157  RH  088%=      5-min Rain = 0
KSE2 111538Z 19005KT 18/16 A3005 RMK A01 T01780158  RH  088%=      5-min Rain = 0
KSE2 111539Z 20007KT 18/16 A3005 RMK A01 T01790158  RH  087%=      5-min Rain = 0
KSE2 111540Z 20006KT 18/16 A3005 RMK A01 T01800158  RH  087%=      5-min Rain = 0
KSE2 111541Z 21006KT 18/16 A3005 RMK A01 T01800158  RH  087%=      5-min Rain = 0
KSE2 111542Z 20007KT 18/16 A3005 RMK A01 T01810158  RH  087%=      5-min Rain = 0
KSE2 111543Z 20006KT 18/16 A3005 RMK A01 T01810158  RH  087%=      5-min Rain = 0
KSE2 111544Z 23007KT 18/16 A3005 RMK A01 T01810158  RH  086%=      5-min Rain = 0
KSE2 111545Z 21005KT 18/16 A3005 RMK A01 T01810159  RH  087%=      5-min Rain = 0
KSE2 111546Z 21004KT 18/16 A3005 RMK A01 T01810159  RH  087%=      5-min Rain = 0
KSE2 111547Z 20006KT 18/16 A3005 RMK A01 T01830160  RH  086%=      5-min Rain = 0
KSE2 111548Z 20007KT 18/16 A3005 RMK A01 T01830158  RH  085%=      5-min Rain = 0
KSE2 111549Z 20008KT 18/16 A3005 RMK A01 T01820158  RH  085%=      5-min Rain = 0
KSE2 111550Z 22009KT 18/16 A3005 RMK A01 T01820158  RH  086%=      5-min Rain = 0
KSE2 111551Z 23009KT 18/16 A3005 RMK A01 T01820157  RH  086%=      5-min Rain = 0
KSE2 111552Z 23006KT 18/16 A3005 RMK A01 T01810158  RH  086%=      5-min Rain = 0
KSE2 111553Z 23008KT 18/16 A3005 RMK A01 T01820158  RH  086%=      5-min Rain = 0
KSE2 111554Z 23006KT 18/16 A3005 RMK A01 T01820158  RH  086%=      5-min Rain = 0
KSE2 111555Z 23005KT 18/16 A3005 RMK A01 T01820158  RH  086%=      5-min Rain = 0
KSE2 111556Z 23009KT 18/16 A3006 RMK A01 T01820158  RH  085%=      5-min Rain = 0
KSE2 111557Z 24007KT 18/16 A3006 RMK A01 T01820157  RH  085%=      5-min Rain = 0
KSE2 111558Z 24006KT 18/16 A3006 RMK A01 T01820158  RH  086%=      5-min Rain = 0
KSE2 111559Z 24006KT 18/16 A3006 RMK A01 T01820158  RH  086%=      5-min Rain = 0
KSE2 111600Z 25007KT 18/16 A3007 RMK A01 T01820158  RH  086%=      5-min Rain = 0
KSE2 111601Z 26006KT 18/16 A3007 RMK A01 T01820158  RH  086%=      5-min Rain = 0
KSE2 111602Z 25005KT 18/16 A3007 RMK A01 T01820159  RH  086%=      5-min Rain = 0
KSE2 111603Z 25006KT 18/16 A3007 RMK A01 T01830158  RH  085%=      5-min Rain = 0
KSE2 111604Z 24007KT 18/16 A3007 RMK A01 T01830158  RH  085%=      5-min Rain = 0
KSE2 111605Z 23008KT 18/16 A3007 RMK A01 T01830157  RH  085%=      5-min Rain = 0
KSE2 111606Z 24005KT 18/16 A3007 RMK A01 T01810157  RH  086%=      5-min Rain = 0
KSE2 111607Z 25005KT 18/16 A3007 RMK A01 T01810158  RH  086%=      5-min Rain = 0
KSE2 111608Z 23004KT 18/16 A3007 RMK A01 T01810158  RH  086%=      5-min Rain = 0
KSE2 111609Z 22005KT 18/16 A3007 RMK A01 T01820158  RH  086%=      5-min Rain = 0
KSE2 111610Z 22004KT 18/16 A3007 RMK A01 T01820158  RH  086%=      5-min Rain = 0
KSE2 111611Z 23006KT 18/16 A3007 RMK A01 T01810158  RH  086%=      5-min Rain = 0
KSE2 111612Z 23005KT 18/16 A3007 RMK A01 T01810158  RH  086%=      5-min Rain = 0
KSE2 111613Z 24004KT 18/16 A3007 RMK A01 T01810158  RH  087%=      5-min Rain = 0
KSE2 111614Z 25003KT 18/16 A3007 RMK A01 T01800158  RH  087%=      5-min Rain = 0
KSE2 111615Z 26004KT 18/16 A3007 RMK A01 T01810159  RH  087%=      5-min Rain = 0
KSE2 111616Z 25004KT 18/16 A3007 RMK A01 T01820160  RH  087%=      5-min Rain = 0
KSE2 111617Z 25006KT 18/16 A3007 RMK A01 T01830159  RH  086%=      5-min Rain = 0
KSE2 111618Z 27005KT 18/16 A3008 RMK A01 T01830158  RH  085%=      5-min Rain = 0
KSE2 111619Z 28004KT 18/16 A3008 RMK A01 T01820158  RH  086%=      5-min Rain = 0
KSE2 111620Z 29004KT 18/16 A3008 RMK A01 T01820158  RH  086%=      5-min Rain = 0
KSE2 111621Z 27003KT 18/16 A3008 RMK A01 T01820158  RH  086%=      5-min Rain = 0
KSE2 111622Z 29003KT 18/16 A3008 RMK A01 T01820158  RH  085%=      5-min Rain = 0
KSE2 111623Z 31003KT 18/16 A3008 RMK A01 T01830158  RH  085%=      5-min Rain = 0
KSE2 111624Z 32005KT 18/16 A3008 RMK A01 T01830159  RH  085%=      5-min Rain = 0
KSE2 111625Z 32006KT 18/16 A3008 RMK A01 T01830158  RH  085%=      5-min Rain = 0
KSE2 111626Z 32006KT 18/16 A3008 RMK A01 T01830158  RH  085%=      5-min Rain = 0
KSE2 111627Z 33008KT 18/16 A3008 RMK A01 T01830158  RH  086%=      5-min Rain = 0
KSE2 111628Z 32007KT 18/16 A3008 RMK A01 T01830158  RH  086%=      5-min Rain = 0
KSE2 111629Z 31006KT 18/16 A3009 RMK A01 T01820158  RH  085%=      5-min Rain = 0
KSE2 111630Z 33007KT 18/16 A3009 RMK A01 T01820158  RH  086%=      5-min Rain = 0
KSE2 111631Z 31006KT 18/16 A3009 RMK A01 T01820158  RH  086%=      5-min Rain = 0
KSE2 111632Z 31006KT 18/16 A3009 RMK A01 T01820159  RH  086%=      5-min Rain = 0
KSE2 111633Z 31005KT 18/16 A3009 RMK A01 T01810158  RH  086%=      5-min Rain = 0
KSE2 111634Z 31004KT 18/16 A3009 RMK A01 T01810158  RH  087%=      5-min Rain = 0
KSE2 111635Z 32004KT 18/16 A3009 RMK A01 T01810159  RH  087%=      5-min Rain = 0
KSE2 111636Z 32007KT 18/16 A3009 RMK A01 T01810159  RH  087%=      5-min Rain = 0
KSE2 111637Z 33005KT 18/16 A3009 RMK A01 T01810158  RH  087%=      5-min Rain = 0
KSE2 111638Z 33005KT 18/16 A3009 RMK A01 T01800158  RH  087%=      5-min Rain = 0
KSE2 111639Z 34005KT 18/16 A3009 RMK A01 T01800159  RH  087%=      5-min Rain = 0
KSE2 111640Z 33008KT 18/16 A3009 RMK A01 T01810159  RH  087%=      5-min Rain = 0
KSE2 111641Z 33007KT 18/16 A3009 RMK A01 T01810158  RH  087%=      5-min Rain = 0
KSE2 111642Z 34007KT 18/16 A3009 RMK A01 T01810158  RH  086%=      5-min Rain = 0
KSE2 111643Z 34005KT 18/16 A3008 RMK A01 T01800158  RH  087%=      5-min Rain = 0
KSE2 111644Z 00005KT 18/16 A3008 RMK A01 T01810159  RH  087%=      5-min Rain = 0
KSE2 111645Z 35006KT 18/16 A3008 RMK A01 T01810159  RH  087%=      5-min Rain = 0
KSE2 111646Z 35006KT 18/16 A3008 RMK A01 T01820159  RH  087%=      5-min Rain = 0
KSE2 111647Z 35008KT 18/16 A3008 RMK A01 T01820159  RH  086%=      5-min Rain = 0
KSE2 111648Z 35007KT 18/16 A3008 RMK A01 T01820159  RH  086%=      5-min Rain = 0
KSE2 111649Z 35008KT 18/16 A3009 RMK A01 T01810159  RH  087%=      5-min Rain = 0
KSE2 111650Z 35009KT 18/16 A3009 RMK A01 T01820159  RH  086%=      5-min Rain = 0
KSE2 111651Z 35009KT 18/16 A3009 RMK A01 T01820158  RH  086%=      5-min Rain = 0
KSE2 111652Z 35008KT 18/16 A3009 RMK A01 T01820159  RH  086%=      5-min Rain = 0
KSE2 111653Z 35009KT 18/16 A3009 RMK A01 T01830159  RH  086%=      5-min Rain = 0
KSE2 111654Z 34007KT 18/16 A3009 RMK A01 T01830159  RH  086%=      5-min Rain = 0
KSE2 111655Z 34007KT 18/16 A3009 RMK A01 T01830159  RH  086%=      5-min Rain = 0
KSE2 111656Z 34010KT 18/16 A3009 RMK A01 T01830159  RH  086%=      5-min Rain = 0
KSE2 111657Z 34009KT 18/16 A3009 RMK A01 T01820158  RH  086%=      5-min Rain = 0
KSE2 111658Z 34009KT 18/16 A3009 RMK A01 T01810157  RH  086%=      5-min Rain = 0
KSE2 111659Z 34008KT 18/16 A3009 RMK A01 T01800157  RH  086%=      5-min Rain = 0
KSE2 111700Z 34009KT 18/16 A3009 RMK A01 T01800157  RH  086%=      5-min Rain = 0
KSE2 111701Z 34007KT 18/16 A3009 RMK A01 T01790157  RH  087%=      5-min Rain = 0
KSE2 111702Z 34007KT 18/16 A301 RMK A01 T01790157  RH  087%=      5-min Rain = 0
KSE2 111703Z 34008KT 18/16 A301 RMK A01 T01790157  RH  087%=      5-min Rain = 0
KSE2 111704Z 35007KT 18/16 A301 RMK A01 T01790157  RH  087%=      5-min Rain = 0
KSE2 111705Z 35007KT 18/16 A301 RMK A01 T01790157  RH  087%=      5-min Rain = 0
KSE2 111706Z 34006KT 18/16 A301 RMK A01 T01790157  RH  087%=      5-min Rain = 0
KSE2 111707Z 34010KT 18/16 A301 RMK A01 T01790157  RH  087%=      5-min Rain = 0
KSE2 111708Z 34008KT 18/16 A301 RMK A01 T01790157  RH  087%=      5-min Rain = 0
KSE2 111709Z 34008KT 18/16 A301 RMK A01 T01790157  RH  087%=      5-min Rain = 0
KSE2 111710Z 33007KT 18/16 A301 RMK A01 T01790157  RH  087%=      5-min Rain = 0
KSE2 111711Z 35008KT 18/16 A3009 RMK A01 T01790157  RH  087%=      5-min Rain = 0
KSE2 111712Z 35007KT 18/16 A3009 RMK A01 T01790157  RH  087%=      5-min Rain = 0
KSE2 111713Z 34007KT 18/16 A3009 RMK A01 T01790157  RH  087%=      5-min Rain = 0
KSE2 111714Z 34008KT 18/16 A3009 RMK A01 T01800157  RH  086%=      5-min Rain = 0
KSE2 111715Z 35008KT 18/16 A3009 RMK A01 T01800157  RH  086%=      5-min Rain = 0
KSE2 111716Z 35007G12KT 18/16 A3009 RMK A01 T01790156  RH  087%=      5-min Rain = 0
KSE2 111717Z 34009KT 18/16 A3009 RMK A01 T01790156  RH  087%=      5-min Rain = 0
KSE2 111718Z 34007KT 18/16 A3009 RMK A01 T01790157  RH  087%=      5-min Rain = 0
KSE2 111719Z 35006KT 18/16 A3009 RMK A01 T01790157  RH  087%=      5-min Rain = 0
KSE2 111720Z 34005KT 18/16 A3009 RMK A01 T01790157  RH  087%=      5-min Rain = 0
KSE2 111721Z 33008KT 18/16 A3009 RMK A01 T01790157  RH  087%=      5-min Rain = 0
KSE2 111722Z 34007KT 18/16 A3009 RMK A01 T01800157  RH  087%=      5-min Rain = 0
KSE2 111723Z 34005KT 18/16 A3009 RMK A01 T01810158  RH  086%=      5-min Rain = 0
KSE2 111724Z 34005KT 18/16 A3009 RMK A01 T01830159  RH  086%=      5-min Rain = 0
KSE2 111725Z 34006KT 18/16 A3009 RMK A01 T01830158  RH  085%=      5-min Rain = 0
KSE2 111726Z 35005KT 18/16 A3009 RMK A01 T01840159  RH  085%=      5-min Rain = 0
KSE2 111727Z 34005KT 19/16 A3009 RMK A01 T01850159  RH  085%=      5-min Rain = 0
KSE2 111728Z 34005KT 19/16 A3009 RMK A01 T01850158  RH  084%=      5-min Rain = 0
KSE2 111729Z 34009KT 19/16 A3009 RMK A01 T01850157  RH  084%=      5-min Rain = 0
KSE2 111730Z 35007KT 19/16 A3009 RMK A01 T01850157  RH  084%=      5-min Rain = 0
KSE2 111731Z 35008KT 19/16 A3009 RMK A01 T01850156  RH  083%=      5-min Rain = 0
KSE2 111732Z 35011KT 19/16 A3009 RMK A01 T01850155  RH  083%=      5-min Rain = 0
KSE2 111733Z 34010KT 19/16 A3009 RMK A01 T01850155  RH  083%=      5-min Rain = 0
KSE2 111734Z 34007KT 19/16 A301 RMK A01 T01850155  RH  083%=      5-min Rain = 0
KSE2 111735Z 35007KT 19/16 A301 RMK A01 T01850155  RH  083%=      5-min Rain = 0
KSE2 111736Z 35010G15KT 19/16 A301 RMK A01 T01850155  RH  083%=      5-min Rain = 0
KSE2 111737Z 34018G25KT 18/15 A301 RMK A01 T01830147  RH  079%=      5-min Rain = 0
KSE2 111738Z 34016G22KT 17/12 A3011 RMK A01 T01680121  RH  073%=      5-min Rain = 0
KSE2 111739Z 35018G24KT 15/11 A3011 RMK A01 T01520110  RH  076%=      5-min Rain = 0
KSE2 111740Z 34017G27KT 14/11 A3011 RMK A01 T01430107  RH  079%=      5-min Rain = 0
KSE2 111741Z 35018G25KT 14/10 A3011 RMK A01 T01360104  RH  081%=      5-min Rain = 0
KSE2 111742Z 35020G25KT 13/10 A3011 RMK A01 T01310101  RH  082%=      5-min Rain = 0
KSE2 111743Z 35018G24KT 13/10 A3012 RMK A01 T01270101  RH  084%=      5-min Rain = 0
KSE2 111744Z 35018G23KT 13/10 A3012 RMK A01 T01250101  RH  085%=      5-min Rain = 0
KSE2 111745Z 35017G23KT 12/10 A3012 RMK A01 T01230100  RH  086%=      5-min Rain = 0
KSE2 111746Z 35015G22KT 12/10 A3012 RMK A01 T01220101  RH  087%=      5-min Rain = 0
KSE2 111747Z 00019KT 12/10 A3012 RMK A01 T01210099  RH  087%=      5-min Rain = 0
KSE2 111748Z 00016KT 12/10 A3012 RMK A01 T01190097  RH  087%=      5-min Rain = 0
KSE2 111749Z 36017KT 12/09 A3012 RMK A01 T01160094  RH  087%=      5-min Rain = 0
KSE2 111750Z 00019KT 11/09 A3013 RMK A01 T01130091  RH  086%=      5-min Rain = 0
KSE2 111751Z 00018G24KT 11/09 A3013 RMK A01 T01100088  RH  086%=      5-min Rain = 0
KSE2 111752Z 36017G24KT 11/09 A3013 RMK A01 T01070086  RH  087%=      5-min Rain = 0
KSE2 111753Z 36016G23KT 11/09 A3013 RMK A01 T01050085  RH  087%=      5-min Rain = 0
KSE2 111754Z 00020G25KT 10/08 A3013 RMK A01 T01040083  RH  087%=      5-min Rain = 0
KSE2 111755Z 00019G26KT 10/08 A3013 RMK A01 T01010082  RH  088%=      5-min Rain = 0
KSE2 111756Z 00017G22KT 10/08 A3013 RMK A01 T01000082  RH  088%=      5-min Rain = 0
KSE2 111757Z 00017G23KT 10/08 A3013 RMK A01 T01000082  RH  089%=      5-min Rain = 0
KSE2 111758Z 36017KT 10/08 A3014 RMK A01 T00990081  RH  088%=      5-min Rain = 0
KSE2 111759Z 00013G22KT 10/08 A3014 RMK A01 T00980080  RH  089%=      5-min Rain = 0
KSE2 111800Z 36014G19KT 10/08 A3014 RMK A01 T00970080  RH  089%=      5-min Rain = 0
KSE2 111801Z 36017KT 10/08 A3014 RMK A01 T00960079  RH  089%=      5-min Rain = 0
KSE2 111802Z 35013G20KT 10/08 A3014 RMK A01 T00950078  RH  089%=      5-min Rain = 0
KSE2 111803Z 36015G20KT 10/08 A3014 RMK A01 T00950078  RH  089%=      5-min Rain = 0
KSE2 111804Z 36021G26KT 09/08 A3014 RMK A01 T00930076  RH  089%=      5-min Rain = 0
KSE2 111805Z 00019G25KT 09/07 A3014 RMK A01 T00910074  RH  089%=      5-min Rain = 0
KSE2 111806Z 35018G24KT 09/07 A3014 RMK A01 T00900074  RH  089%=      5-min Rain = 0
KSE2 111807Z 36020G26KT 09/07 A3014 RMK A01 T00900073  RH  089%=      5-min Rain = 0
KSE2 111808Z 36016G23KT 09/07 A3014 RMK A01 T00890073  RH  089%=      5-min Rain = 0
KSE2 111809Z 00019G24KT 09/07 A3014 RMK A01 T00880071  RH  089%=      5-min Rain = 0
KSE2 111810Z 00017KT 09/07 A3014 RMK A01 T00880070  RH  089%=      5-min Rain = 0
KSE2 111811Z 36017G22KT 09/07 A3015 RMK A01 T00870069  RH  089%=      5-min Rain = 0
KSE2 111812Z 36015G21KT 09/07 A3015 RMK A01 T00860069  RH  089%=      5-min Rain = 0
KSE2 111813Z 35016G21KT 09/07 A3015 RMK A01 T00860068  RH  089%=      5-min Rain = 0
KSE2 111814Z 00016G22KT 09/07 A3015 RMK A01 T00850068  RH  089%=      5-min Rain = 0
KSE2 111815Z 35016KT 09/07 A3015 RMK A01 T00850068  RH  089%=      5-min Rain = 0
KSE2 111816Z 35015KT 08/07 A3015 RMK A01 T00840068  RH  089%=      5-min Rain = 0
KSE2 111817Z 35015KT 08/07 A3015 RMK A01 T00840068  RH  090%=      5-min Rain = 0
KSE2 111818Z 34018KT 08/07 A3016 RMK A01 T00830067  RH  089%=      5-min Rain = 0
KSE2 111819Z 35015KT 08/07 A3016 RMK A01 T00830067  RH  089%=      5-min Rain = 0
KSE2 111820Z 34016G21KT 08/07 A3016 RMK A01 T00830066  RH  090%=      5-min Rain = 0
KSE2 111821Z 34017G23KT 08/07 A3016 RMK A01 T00820066  RH  089%=      5-min Rain = 0
KSE2 111822Z 35015KT 08/07 A3016 RMK A01 T00820065  RH  090%=      5-min Rain = 0
KSE2 111823Z 34012KT 08/07 A3016 RMK A01 T00810065  RH  090%=      5-min Rain = 0
KSE2 111824Z 35016G24KT 08/07 A3016 RMK A01 T00810066  RH  090%=      5-min Rain = 0
KSE2 111825Z 34022G30KT 08/06 A3016 RMK A01 T00800062  RH  088%=      5-min Rain = 0
KSE2 111826Z 34017G25KT 08/06 A3016 RMK A01 T00780059  RH  088%=      5-min Rain = 0
KSE2 111827Z 34020G28KT 08/06 A3016 RMK A01 T00760058  RH  088%=      5-min Rain = 0
KSE2 111828Z 34016G24KT 08/06 A3016 RMK A01 T00750057  RH  088%=      5-min Rain = 0
KSE2 111829Z 34020G25KT 07/06 A3016 RMK A01 T00740057  RH  089%=      5-min Rain = 0
KSE2 111830Z 34018G24KT 07/06 A3016 RMK A01 T00730056  RH  089%=      5-min Rain = 0
KSE2 111831Z 34022G27KT 07/06 A3017 RMK A01 T00730056  RH  089%=      5-min Rain = 0
KSE2 111832Z 34018G24KT 07/06 A3017 RMK A01 T00720055  RH  089%=      5-min Rain = 0
KSE2 111833Z 34016G24KT 07/06 A3017 RMK A01 T00720055  RH  089%=      5-min Rain = 0
KSE2 111834Z 34016G25KT 07/06 A3017 RMK A01 T00720055  RH  089%=      5-min Rain = 0
KSE2 111835Z 34021G29KT 07/06 A3017 RMK A01 T00710055  RH  089%=      5-min Rain = 0
KSE2 111836Z 34018G25KT 07/05 A3017 RMK A01 T00700054  RH  089%=      5-min Rain = 0
KSE2 111837Z 34017G22KT 07/05 A3017 RMK A01 T00700054  RH  089%=      5-min Rain = 0
KSE2 111838Z 35016G25KT 07/05 A3017 RMK A01 T00690053  RH  090%=      5-min Rain = 0
KSE2 111839Z 35016G23KT 07/05 A3017 RMK A01 T00690053  RH  090%=      5-min Rain = 0
KSE2 111840Z 35013G22KT 07/05 A3017 RMK A01 T00690053  RH  090%=      5-min Rain = 0
KSE2 111841Z 34016G24KT 07/05 A3017 RMK A01 T00680052  RH  090%=      5-min Rain = 0
KSE2 111842Z 35018G25KT 07/05 A3017 RMK A01 T00680051  RH  089%=      5-min Rain = 0
KSE2 111843Z 36016G21KT 07/05 A3018 RMK A01 T00660050  RH  089%=      5-min Rain = 0
KSE2 111844Z 35019G25KT 07/05 A3017 RMK A01 T00660049  RH  089%=      5-min Rain = 0
KSE2 111845Z 35018G26KT 07/05 A3018 RMK A01 T00650050  RH  090%=      5-min Rain = 0
KSE2 111846Z 35019KT 07/05 A3018 RMK A01 T00650050  RH  090%=      5-min Rain = 0
KSE2 111847Z 35019G26KT 06/05 A3018 RMK A01 T00640049  RH  090%=      5-min Rain = 0
KSE2 111848Z 34021G27KT 06/05 A3018 RMK A01 T00640049  RH  090%=      5-min Rain = 0
KSE2 111849Z 35015KT 06/05 A3018 RMK A01 T00630049  RH  090%=      5-min Rain = 0
KSE2 111850Z 35015G28KT 06/05 A3018 RMK A01 T00640049  RH  091%=      5-min Rain = 0
KSE2 111851Z 35015G22KT 06/05 A3018 RMK A01 T00640049  RH  091%=      5-min Rain = 0
KSE2 111852Z 36019KT 06/05 A3018 RMK A01 T00630049  RH  091%=      5-min Rain = 0
KSE2 111853Z 35017G22KT 06/05 A3018 RMK A01 T00630049  RH  091%=      5-min Rain = 0
KSE2 111854Z 36016G21KT 06/05 A3018 RMK A01 T00630049  RH  091%=      5-min Rain = 0
KSE2 111855Z 35018KT 06/05 A3018 RMK A01 T00630049  RH  091%=      5-min Rain = 0
KSE2 111856Z 36016G21KT 06/05 A3018 RMK A01 T00620049  RH  091%=      5-min Rain = 0
KSE2 111857Z 36012KT 06/05 A3018 RMK A01 T00620049  RH  091%=      5-min Rain = 0
KSE2 111858Z 35014G19KT 06/05 A3018 RMK A01 T00620049  RH  092%=      5-min Rain = 0
KSE2 111859Z 00012G18KT 06/05 A3019 RMK A01 T00610049  RH  092%=      5-min Rain = 0
KSE2 111900Z 35012KT 06/05 A3019 RMK A01 T00610050  RH  092%=      5-min Rain = 0
KSE2 111901Z 36013KT 06/05 A3019 RMK A01 T00610050  RH  092%=      5-min Rain = 0
KSE2 111902Z 34010G18KT 06/05 A3019 RMK A01 T00600049  RH  092%=      5-min Rain = 0
KSE2 111903Z 34017G22KT 06/05 A3019 RMK A01 T00600048  RH  092%=      5-min Rain = 0
KSE2 111904Z 34022G27KT 06/04 A3019 RMK A01 T00570044  RH  091%=      5-min Rain = 0
KSE2 111905Z 35017G23KT 06/04 A3019 RMK A01 T00550041  RH  091%=      5-min Rain = 0
KSE2 111906Z 33018KT 05/04 A3019 RMK A01 T00540041  RH  091%=      5-min Rain = 0
KSE2 111907Z 34016G23KT 05/04 A3019 RMK A01 T00530040  RH  092%=      5-min Rain = 0
KSE2 111908Z 35015G23KT 05/04 A3019 RMK A01 T00530041  RH  092%=      5-min Rain = 0
KSE2 111909Z 34016G22KT 05/04 A3019 RMK A01 T00530042  RH  093%=      5-min Rain = 0
KSE2 111910Z 34012KT 05/04 A3019 RMK A01 T00520041  RH  093%=      5-min Rain = 0
KSE2 111911Z 34015G21KT 05/04 A3019 RMK A01 T00520042  RH  093%=      5-min Rain = 0
KSE2 111912Z 34012G18KT 05/04 A3019 RMK A01 T00520041  RH  093%=      5-min Rain = 0
KSE2 111913Z 35012KT 05/04 A3019 RMK A01 T00510042  RH  093%=      5-min Rain = 0
KSE2 111914Z 35012KT 05/04 A3019 RMK A01 T00510042  RH  093%=      5-min Rain = 0
KSE2 111915Z 35013KT 05/04 A3019 RMK A01 T00510041  RH  093%=      5-min Rain = 0
KSE2 111916Z 35016G23KT 05/04 A3019 RMK A01 T00510040  RH  093%=      5-min Rain = 0
KSE2 111917Z 35014KT 05/04 A3019 RMK A01 T00500039  RH  093%=      5-min Rain = 0
KSE2 111918Z 35018G23KT 05/04 A3019 RMK A01 T00490038  RH  092%=      5-min Rain = 0
KSE2 111919Z 36018G24KT 05/03 A3019 RMK A01 T00470034  RH  091%=      5-min Rain = 0
KSE2 111920Z 35015G20KT 05/03 A3019 RMK A01 T00470034  RH  091%=      5-min Rain = 0
KSE2 111921Z 35012KT 05/04 A3019 RMK A01 T00470035  RH  092%=      5-min Rain = 0
KSE2 111922Z 35018G26KT 05/04 A3019 RMK A01 T00470035  RH  092%=      5-min Rain = 0
KSE2 111923Z 35016G22KT 05/03 A3019 RMK A01 T00470034  RH  091%=      5-min Rain = 0
KSE2 111924Z 35016KT 05/03 A3019 RMK A01 T00460032  RH  091%=      5-min Rain = 0
KSE2 111925Z 35015G21KT 05/03 A302 RMK A01 T00450032  RH  091%=      5-min Rain = 0
KSE2 111926Z 35016KT 05/03 A302 RMK A01 T00450032  RH  091%=      5-min Rain = 0
KSE2 111927Z 36019G24KT 05/03 A302 RMK A01 T00450032  RH  091%=      5-min Rain = 0
KSE2 111928Z 36019KT 04/03 A302 RMK A01 T00440031  RH  091%=      5-min Rain = 0
KSE2 111929Z 35018G23KT 04/03 A302 RMK A01 T00440031  RH  091%=      5-min Rain = 0
KSE2 111930Z 36016G23KT 04/03 A302 RMK A01 T00440031  RH  091%=      5-min Rain = 0
KSE2 111931Z 36013G22KT 04/03 A302 RMK A01 T00430030  RH  091%=      5-min Rain = 0
KSE2 111932Z 35015G20KT 04/03 A302 RMK A01 T00440030  RH  091%=      5-min Rain = 0
KSE2 111933Z 35018G23KT 04/03 A3021 RMK A01 T00430030  RH  091%=      5-min Rain = 0
KSE2 111934Z 36016KT 04/03 A3021 RMK A01 T00430029  RH  091%=      5-min Rain = 0
KSE2 111935Z 35017G23KT 04/03 A3021 RMK A01 T00420029  RH  091%=      5-min Rain = 0
KSE2 111936Z 35016G21KT 04/03 A3021 RMK A01 T00420028  RH  091%=      5-min Rain = 0
KSE2 111937Z 35015G20KT 04/03 A3021 RMK A01 T00410028  RH  091%=      5-min Rain = 0
KSE2 111938Z 35019G24KT 04/03 A3021 RMK A01 T00410028  RH  091%=      5-min Rain = 0
KSE2 111939Z 00016G23KT 04/03 A3021 RMK A01 T00410028  RH  091%=      5-min Rain = 0
KSE2 111940Z 35017KT 04/03 A3021 RMK A01 T00410028  RH  091%=      5-min Rain = 0
KSE2 111941Z 00016G22KT 04/03 A3021 RMK A01 T00410027  RH  091%=      5-min Rain = 0
KSE2 111942Z 36015G20KT 04/03 A3021 RMK A01 T00400027  RH  091%=      5-min Rain = 0
KSE2 111943Z 36016G21KT 04/03 A3021 RMK A01 T00400027  RH  091%=      5-min Rain = 0
KSE2 111944Z 36016G21KT 04/03 A3022 RMK A01 T00400027  RH  091%=      5-min Rain = 0
KSE2 111945Z 36017G23KT 04/03 A3022 RMK A01 T00400026  RH  091%=      5-min Rain = 0
KSE2 111946Z 00012G17KT 04/03 A3022 RMK A01 T00400026  RH  091%=      5-min Rain = 0
KSE2 111947Z 35014G19KT 04/03 A3022 RMK A01 T00400027  RH  091%=      5-min Rain = 0
KSE2 111948Z 35013KT 04/03 A3022 RMK A01 T00400027  RH  091%=      5-min Rain = 0
KSE2 111949Z 36012KT 04/03 A3022 RMK A01 T00400027  RH  092%=      5-min Rain = 0
KSE2 111950Z 35010KT 04/03 A3022 RMK A01 T00400028  RH  092%=      5-min Rain = 0
KSE2 111951Z 35011G16KT 04/03 A3022 RMK A01 T00400028  RH  092%=      5-min Rain = 0
KSE2 111952Z 35012G19KT 04/03 A3022 RMK A01 T00400029  RH  092%=      5-min Rain = 0
KSE2 111953Z 36013KT 04/03 A3022 RMK A01 T00400028  RH  092%=      5-min Rain = 0
KSE2 111954Z 36012G18KT 04/03 A3022 RMK A01 T00390027  RH  092%=      5-min Rain = 0
KSE2 111955Z 01009KT 04/03 A3022 RMK A01 T00390027  RH  092%=      5-min Rain = 0
KSE2 111956Z 35009G16KT 04/03 A3022 RMK A01 T00400029  RH  093%=      5-min Rain = 0
KSE2 111957Z 35017KT 04/03 A3022 RMK A01 T00400028  RH  092%=      5-min Rain = 0
KSE2 111958Z 36012KT 04/03 A3022 RMK A01 T00380026  RH  092%=      5-min Rain = 0
KSE2 111959Z 01015G20KT 04/03 A3022 RMK A01 T00380027  RH  092%=      5-min Rain = 0
KSE2 112000Z 00013KT 04/03 A3023 RMK A01 T00390026  RH  092%=      5-min Rain = 0
KSE2 112001Z 36012KT 04/03 A3023 RMK A01 T00380026  RH  091%=      5-min Rain = 0
KSE2 112002Z 00013G20KT 04/03 A3023 RMK A01 T00380026  RH  092%=      5-min Rain = 0
KSE2 112003Z 36013G18KT 04/03 A3023 RMK A01 T00380026  RH  092%=      5-min Rain = 0
KSE2 112004Z 36012G18KT 04/03 A3023 RMK A01 T00380025  RH  092%=      5-min Rain = 0
KSE2 112005Z 36017G24KT 04/03 A3023 RMK A01 T00370025  RH  092%=      5-min Rain = 0
KSE2 112006Z 00014G19KT 04/02 A3023 RMK A01 T00360023  RH  091%=      5-min Rain = 0
KSE2 112007Z 35017KT 04/02 A3024 RMK A01 T00350022  RH  091%=      5-min Rain = 0
KSE2 112008Z 35017G23KT 04/02 A3024 RMK A01 T00350021  RH  091%=      5-min Rain = 0
KSE2 112009Z 35017G22KT 03/02 A3024 RMK A01 T00340019  RH  090%=      5-min Rain = 0
KSE2 112010Z 35018G24KT 03/02 A3024 RMK A01 T00330019  RH  090%=      5-min Rain = 0
KSE2 112011Z 35014KT 03/02 A3024 RMK A01 T00330018  RH  090%=      5-min Rain = 0
KSE2 112012Z 34014G22KT 03/02 A3024 RMK A01 T00320018  RH  090%=      5-min Rain = 0
KSE2 112013Z 35015G20KT 03/02 A3024 RMK A01 T00320017  RH  090%=      5-min Rain = 0
KSE2 112014Z 36017G22KT 03/02 A3024 RMK A01 T00310017  RH  090%=      5-min Rain = 0
KSE2 112015Z 35014G22KT 03/02 A3025 RMK A01 T00310017  RH  090%=      5-min Rain = 0
KSE2 112016Z 35015G20KT 03/02 A3025 RMK A01 T00310017  RH  091%=      5-min Rain = 0
KSE2 112017Z 34015G20KT 03/02 A3025 RMK A01 T00310017  RH  091%=      5-min Rain = 0
KSE2 112018Z 34016KT 03/02 A3025 RMK A01 T00300015  RH  090%=      5-min Rain = 0
KSE2 112019Z 34018KT 03/02 A3025 RMK A01 T00290015  RH  090%=      5-min Rain = 0
KSE2 112020Z 34015G20KT 03/01 A3025 RMK A01 T00290014  RH  090%=      5-min Rain = 0
KSE2 112021Z 35015KT 03/01 A3025 RMK A01 T00280013  RH  090%=      5-min Rain = 0
KSE2 112022Z 34013G20KT 03/01 A3025 RMK A01 T00280013  RH  090%=      5-min Rain = 0
KSE2 112023Z 35013KT 03/01 A3025 RMK A01 T00270013  RH  090%=      5-min Rain = 0
KSE2 112024Z 35014G22KT 03/01 A3025 RMK A01 T00270012  RH  090%=      5-min Rain = 0
KSE2 112025Z 36016KT 03/01 A3025 RMK A01 T00260011  RH  090%=      5-min Rain = 0
KSE2 112026Z 35016G23KT 03/01 A3025 RMK A01 T00260011  RH  090%=      5-min Rain = 0
KSE2 112027Z 35019KT 03/01 A3025 RMK A01 T00250010  RH  090%=      5-min Rain = 0
KSE2 112028Z 36015G22KT 03/01 A3025 RMK A01 T00250010  RH  090%=      5-min Rain = 0
KSE2 112029Z 35017KT 02/01 A3026 RMK A01 T00240009  RH  090%=      5-min Rain = 0
KSE2 112030Z 00013KT 02/01 A3025 RMK A01 T00240009  RH  090%=      5-min Rain = 0
KSE2 112031Z 36019G26KT 02/01 A3025 RMK A01 T00240009  RH  090%=      5-min Rain = 0
KSE2 112032Z 35020G25KT 02/01 A3025 RMK A01 T00240008  RH  089%=      5-min Rain = 0
KSE2 112033Z 35015G20KT 02/01 A3025 RMK A01 T00230007  RH  089%=      5-min Rain = 0
KSE2 112034Z 35016G23KT 02/01 A3025 RMK A01 T00230008  RH  090%=      5-min Rain = 0
KSE2 112035Z 36015KT 02/01 A3025 RMK A01 T00230008  RH  090%=      5-min Rain = 0
KSE2 112036Z 36011KT 02/01 A3025 RMK A01 T00230008  RH  090%=      5-min Rain = 0
KSE2 112037Z 36016G22KT 02/01 A3025 RMK A01 T00230008  RH  090%=      5-min Rain = 0
KSE2 112038Z 00013G19KT 02/01 A3025 RMK A01 T00230007  RH  089%=      5-min Rain = 0
KSE2 112039Z 00019G27KT 02/01 A3025 RMK A01 T00230006  RH  089%=      5-min Rain = 0
KSE2 112040Z 36018G25KT 02/01 A3026 RMK A01 T00230005  RH  088%=      5-min Rain = 0
KSE2 112041Z 00018G26KT 02/00 A3026 RMK A01 T00230004  RH  088%=      5-min Rain = 0
KSE2 112042Z 36018G26KT 02/00 A3026 RMK A01 T00220004  RH  088%=      5-min Rain = 0
KSE2 112043Z 00017G23KT 02/00 A3026 RMK A01 T00220004  RH  088%=      5-min Rain = 0
KSE2 112044Z 36017KT 02/00 A3026 RMK A01 T00220004  RH  088%=      5-min Rain = 0
KSE2 112045Z 35014KT 02/01 A3026 RMK A01 T00220005  RH  088%=      5-min Rain = 0
KSE2 112046Z 36015G21KT 02/01 A3026 RMK A01 T00210005  RH  089%=      5-min Rain = 0
KSE2 112047Z 00014G20KT 02/01 A3026 RMK A01 T00210005  RH  089%=      5-min Rain = 0
KSE2 112048Z 35016G21KT 02/01 A3026 RMK A01 T00210006  RH  089%=      5-min Rain = 0
KSE2 112049Z 35018G23KT 02/01 A3026 RMK A01 T00210005  RH  090%=      5-min Rain = 0
KSE2 112050Z 36017G24KT 02/00 A3026 RMK A01 T00190004  RH  090%=      5-min Rain = 0
KSE2 112051Z 35017G22KT 02/01 A3026 RMK A01 T00190005  RH  090%=      5-min Rain = 0
KSE2 112052Z 35014KT 02/01 A3026 RMK A01 T00190005  RH  091%=      5-min Rain = 0
KSE2 112053Z 35013G20KT 02/01 A3026 RMK A01 T00190006  RH  091%=      5-min Rain = 0
KSE2 112054Z 36018G23KT 02/01 A3026 RMK A01 T00190007  RH  091%=      5-min Rain = 0
KSE2 112055Z 00017KT 02/01 A3026 RMK A01 T00190006  RH  091%=      5-min Rain = 0
KSE2 112056Z 35016G22KT 02/01 A3026 RMK A01 T00180006  RH  091%=      5-min Rain = 0
KSE2 112057Z 35018G24KT 02/01 A3026 RMK A01 T00180005  RH  091%=      5-min Rain = 0
KSE2 112058Z 35019G24KT 02/01 A3026 RMK A01 T00170005  RH  091%=      5-min Rain = 0
KSE2 112059Z 35019G25KT 02/01 A3026 RMK A01 T00180005  RH  091%=      5-min Rain = 0
KSE2 112100Z 35016KT 02/01 A3026 RMK A01 T00180005  RH  091%=      5-min Rain = 0
KSE2 112101Z 35016G23KT 02/01 A3026 RMK A01 T00180005  RH  092%=      5-min Rain = 0
KSE2 112102Z 35017G22KT 02/01 A3026 RMK A01 T00180005  RH  091%=      5-min Rain = 0
KSE2 112103Z 35016G21KT 02/00 A3026 RMK A01 T00170004  RH  091%=      5-min Rain = 0
KSE2 112104Z 35014G23KT 02/01 A3026 RMK A01 T00170005  RH  092%=      5-min Rain = 0
KSE2 112105Z 35012KT 02/01 A3026 RMK A01 T00170005  RH  092%=      5-min Rain = 0
KSE2 112106Z 35011KT 02/01 A3026 RMK A01 T00180006  RH  092%=      5-min Rain = 0
KSE2 112107Z 35011KT 02/01 A3026 RMK A01 T00180007  RH  092%=      5-min Rain = 0
KSE2 112108Z 35019G25KT 02/01 A3027 RMK A01 T00180007  RH  092%=      5-min Rain = 0
KSE2 112109Z 34013KT 02/01 A3027 RMK A01 T00180005  RH  091%=      5-min Rain = 0
KSE2 112110Z 35018G25KT 02/01 A3027 RMK A01 T00180005  RH  092%=      5-min Rain = 0
KSE2 112111Z 36012G20KT 02/00 A3027 RMK A01 T00170004  RH  091%=      5-min Rain = 0
KSE2 112112Z 36011KT 02/01 A3027 RMK A01 T00170005  RH  092%=      5-min Rain = 0
KSE2 112113Z 35011G18KT 02/01 A3027 RMK A01 T00180006  RH  092%=      5-min Rain = 0
KSE2 112114Z 35011G22KT 02/01 A3027 RMK A01 T00180007  RH  092%=      5-min Rain = 0
KSE2 112115Z 34013G20KT 02/01 A3027 RMK A01 T00180006  RH  092%=      5-min Rain = 0
KSE2 112116Z 34014G22KT 02/01 A3027 RMK A01 T00170005  RH  092%=      5-min Rain = 0
KSE2 112117Z 34014G22KT 02/00 A3027 RMK A01 T00150003  RH  092%=      5-min Rain = 0
KSE2 112118Z 33017G25KT 02/00 A3027 RMK A01 T00150002  RH  092%=      5-min Rain = 0
KSE2 112119Z 34016G24KT 01/00 A3027 RMK A01 T00130001  RH  091%=      5-min Rain = 0
KSE2 112120Z 35016KT 01/00 A3028 RMK A01 T00130001  RH  091%=      5-min Rain = 0
KSE2 112121Z 35017G25KT 01/00 A3028 RMK A01 T00130001  RH  092%=      5-min Rain = 0
KSE2 112122Z 34015G23KT 01/00 A3028 RMK A01 T00130001  RH  092%=      5-min Rain = 0
KSE2 112123Z 35014G22KT 01/00 A3027 RMK A01 T001300-0  RH  091%=      5-min Rain = 0
KSE2 112124Z 35020G25KT 01/M00 A3027 RMK A01 T00131001  RH  090%=      5-min Rain = 0
KSE2 112125Z 35017G25KT 01/M00 A3028 RMK A01 T00121004  RH  089%=      5-min Rain = 0
KSE2 112126Z 35017G24KT 01/M01 A3028 RMK A01 T00121005  RH  088%=      5-min Rain = 0
KSE2 112127Z 35016G23KT 01/M01 A3028 RMK A01 T00121005  RH  088%=      5-min Rain = 0
KSE2 112128Z 35013G19KT 01/M01 A3028 RMK A01 T00121006  RH  088%=      5-min Rain = 0
KSE2 112129Z 36012G18KT 01/M01 A3028 RMK A01 T00121005  RH  089%=      5-min Rain = 0
KSE2 112130Z 35016G21KT 01/M01 A3027 RMK A01 T00121005  RH  089%=      5-min Rain = 0
KSE2 112131Z 35017G25KT 01/M01 A3027 RMK A01 T00121006  RH  088%=      5-min Rain = 0
KSE2 112132Z 35018G24KT 01/M01 A3028 RMK A01 T00111008  RH  088%=      5-min Rain = 0
KSE2 112133Z 35016G21KT 01/M01 A3028 RMK A01 T00111008  RH  088%=      5-min Rain = 0
KSE2 112134Z 35018KT 01/M01 A3028 RMK A01 T00111007  RH  088%=      5-min Rain = 0
KSE2 112135Z 35014G19KT 01/M01 A3028 RMK A01 T00101007  RH  088%=      5-min Rain = 0
KSE2 112136Z 36017G23KT 01/M01 A3027 RMK A01 T00091007  RH  089%=      5-min Rain = 0
KSE2 112137Z 35020G27KT 01/M01 A3027 RMK A01 T00091007  RH  089%=      5-min Rain = 0
KSE2 112138Z 36017G25KT 01/M01 A3027 RMK A01 T00081008  RH  089%=      5-min Rain = 0
KSE2 112139Z 36018G24KT 01/M01 A3027 RMK A01 T00081007  RH  090%=      5-min Rain = 0
KSE2 112140Z 00019G24KT 01/M01 A3027 RMK A01 T00071007  RH  090%=      5-min Rain = 0
KSE2 112141Z 35018G23KT 01/M01 A3027 RMK A01 T00071007  RH  090%=      5-min Rain = 0
KSE2 112142Z 35016G21KT 01/M01 A3027 RMK A01 T00071006  RH  091%=      5-min Rain = 0
KSE2 112143Z 00015G20KT 01/M01 A3027 RMK A01 T00071006  RH  092%=      5-min Rain = 0
KSE2 112144Z 36016KT 01/M01 A3027 RMK A01 T00071005  RH  092%=      5-min Rain = 0
KSE2 112145Z 35015KT 01/M01 A3027 RMK A01 T00061005  RH  092%=      5-min Rain = 0
KSE2 112146Z 35016G21KT 01/M00 A3027 RMK A01 T00061004  RH  093%=      5-min Rain = 0
KSE2 112147Z 35013G21KT 01/M00 A3027 RMK A01 T00061004  RH  093%=      5-min Rain = 0
KSE2 112148Z 34019G25KT 01/M01 A3027 RMK A01 T00061005  RH  093%=      5-min Rain = 0
KSE2 112149Z 35018G23KT 00/M01 A3027 RMK A01 T00041007  RH  092%=      5-min Rain = 0.01
KSE2 112150Z 35015G22KT 00/M01 A3027 RMK A01 T00041007  RH  092%=      5-min Rain = 0
KSE2 112151Z 34012G17KT 00/M01 A3027 RMK A01 T00041006  RH  093%=      5-min Rain = 0
KSE2 112152Z 35015G23KT 00/M01 A3027 RMK A01 T00041006  RH  093%=      5-min Rain = 0
KSE2 112153Z 35014G20KT 00/M01 A3027 RMK A01 T00041006  RH  093%=      5-min Rain = 0
KSE2 112154Z 35016KT 00/M01 A3027 RMK A01 T00041005  RH  094%=      5-min Rain = 0
KSE2 112155Z 35018G25KT 00/M01 A3028 RMK A01 T00031006  RH  093%=      5-min Rain = 0
KSE2 112156Z 35017G23KT 00/M01 A3028 RMK A01 T00021007  RH  093%=      5-min Rain = 0
KSE2 112157Z 35017G25KT 00/M01 A3028 RMK A01 T00031007  RH  093%=      5-min Rain = 0
KSE2 112158Z 36018G24KT 00/M01 A3028 RMK A01 T00021007  RH  093%=      5-min Rain = 0
KSE2 112159Z 35014G19KT 00/M01 A3028 RMK A01 T00021008  RH  093%=      5-min Rain = 0
KSE2 112200Z 35014KT 00/M01 A3028 RMK A01 T00021007  RH  093%=      5-min Rain = 0
KSE2 112201Z 35015G20KT 00/M01 A3028 RMK A01 T00031007  RH  093%=      5-min Rain = 0
KSE2 112202Z 00018KT 00/M01 A3028 RMK A01 T00021008  RH  093%=      5-min Rain = 0
KSE2 112203Z 36015G20KT 00/M01 A3028 RMK A01 T00021009  RH  093%=      5-min Rain = 0
KSE2 112204Z 35013KT 00/M01 A3028 RMK A01 T00021008  RH  093%=      5-min Rain = 0
KSE2 112205Z 35014G20KT 00/M01 A3028 RMK A01 T00021008  RH  093%=      5-min Rain = 0
KSE2 112206Z 35016G21KT 00/M01 A3028 RMK A01 T00011008  RH  093%=      5-min Rain = 0
KSE2 112207Z 35016G22KT 00/01 A3028 RMK A01 T000000-9  RH  093%=      5-min Rain = 0
KSE2 112208Z 35014G19KT 00/01 A3029 RMK A01 T000000-9  RH  093%=      5-min Rain = 0
KSE2 112209Z 35013G20KT 00/01 A3029 RMK A01 T00-000-9  RH  094%=      5-min Rain = 0
KSE2 112210Z 34018KT 00/01 A3029 RMK A01 T00-000-9  RH  094%=      5-min Rain = 0
KSE2 112211Z 36014KT 00/01 A3029 RMK A01 T00-000-9  RH  094%=      5-min Rain = 0
KSE2 112212Z 35013KT 00/01 A3029 RMK A01 T00-000-9  RH  094%=      5-min Rain = 0
KSE2 112213Z 35016G22KT 00/01 A3029 RMK A01 T00-000-9  RH  094%=      5-min Rain = 0.01
KSE2 112214Z 36015G21KT 00/01 A3029 RMK A01 T00-000-9  RH  094%=      5-min Rain = 0
KSE2 112215Z 35015G20KT 00/01 A3029 RMK A01 T00-000-9  RH  094%=      5-min Rain = 0
KSE2 112216Z 34015G21KT 00/01 A3029 RMK A01 T00-000-9  RH  094%=      5-min Rain = 0
KSE2 112217Z 35016G24KT 00/01 A3029 RMK A01 T00-00-10  RH  094%=      5-min Rain = 0
KSE2 112218Z 35014G21KT M00/M01 A3029 RMK A01 T10011010  RH  093%=      5-min Rain = 0
KSE2 112219Z 36014KT M00/M01 A3029 RMK A01 T10011010  RH  093%=      5-min Rain = 0
KSE2 112220Z 36017G22KT M00/M01 A3029 RMK A01 T10011010  RH  093%=      5-min Rain = 0
KSE2 112221Z 35018G24KT M00/M01 A3029 RMK A01 T10021011  RH  093%=      5-min Rain = 0
KSE2 112222Z 35017G22KT M00/M01 A3029 RMK A01 T10021012  RH  093%=      5-min Rain = 0
KSE2 112223Z 36018G24KT M00/M01 A3029 RMK A01 T10021012  RH  093%=      5-min Rain = 0
KSE2 112224Z 35015G21KT M00/M01 A3029 RMK A01 T10021012  RH  093%=      5-min Rain = 0
KSE2 112225Z 35014G20KT M00/M01 A303 RMK A01 T10021012  RH  093%=      5-min Rain = 0
KSE2 112226Z 34014KT M00/M01 A303 RMK A01 T10021011  RH  093%=      5-min Rain = 0
KSE2 112227Z 35011G20KT M00/M01 A303 RMK A01 T10021011  RH  094%=      5-min Rain = 0
KSE2 112228Z 35013G19KT M00/M01 A303 RMK A01 T10011010  RH  094%=      5-min Rain = 0.01
KSE2 112229Z 35015G21KT M00/M01 A303 RMK A01 T10021010  RH  094%=      5-min Rain = 0
KSE2 112230Z 35017G23KT M00/M01 A303 RMK A01 T10021011  RH  093%=      5-min Rain = 0
KSE2 112231Z 35016G21KT M00/M01 A303 RMK A01 T10031012  RH  093%=      5-min Rain = 0
KSE2 112232Z 36016G24KT M00/M01 A303 RMK A01 T10021012  RH  093%=      5-min Rain = 0
KSE2 112233Z 35014G19KT M00/M01 A303 RMK A01 T10031012  RH  093%=      5-min Rain = 0
KSE2 112234Z 35014G19KT M00/M01 A303 RMK A01 T10021012  RH  093%=      5-min Rain = 0
KSE2 112235Z 35014KT M00/M01 A303 RMK A01 T10021012  RH  093%=      5-min Rain = 0
KSE2 112236Z 35014G20KT M00/M01 A303 RMK A01 T10021012  RH  093%=      5-min Rain = 0
KSE2 112237Z 35014G22KT M00/M01 A303 RMK A01 T10021012  RH  093%=      5-min Rain = 0
KSE2 112238Z 35015KT M00/M01 A303 RMK A01 T10031012  RH  093%=      5-min Rain = 0
KSE2 112239Z 35011G19KT M00/M01 A303 RMK A01 T10031012  RH  093%=      5-min Rain = 0
KSE2 112240Z 36014KT M00/M01 A303 RMK A01 T10021011  RH  094%=      5-min Rain = 0
KSE2 112241Z 35011G17KT M00/M01 A303 RMK A01 T10021010  RH  094%=      5-min Rain = 0
KSE2 112242Z 35015KT M00/M01 A303 RMK A01 T10021011  RH  094%=      5-min Rain = 0
KSE2 112243Z 35012G18KT M00/M01 A303 RMK A01 T10021012  RH  094%=      5-min Rain = 0
KSE2 112244Z 36014G20KT M00/M01 A303 RMK A01 T10021011  RH  094%=      5-min Rain = 0
KSE2 112245Z 35014G21KT M00/M01 A3031 RMK A01 T10031012  RH  094%=      5-min Rain = 0
KSE2 112246Z 36014G20KT M00/M01 A3031 RMK A01 T10021012  RH  093%=      5-min Rain = 0
KSE2 112247Z 35014KT M00/M01 A3031 RMK A01 T10021012  RH  093%=      5-min Rain = 0
KSE2 112248Z 36016KT M00/M01 A3031 RMK A01 T10021012  RH  093%=      5-min Rain = 0
KSE2 112249Z 35015KT M00/M01 A3031 RMK A01 T10021012  RH  093%=      5-min Rain = 0.01
KSE2 112250Z 35012KT M00/M01 A3031 RMK A01 T10021012  RH  093%=      5-min Rain = 0
KSE2 112251Z 36011KT M00/M01 A3031 RMK A01 T10021011  RH  094%=      5-min Rain = 0
KSE2 112252Z 36013G18KT M00/M01 A303 RMK A01 T10021011  RH  094%=      5-min Rain = 0
KSE2 112253Z 36013KT M00/M01 A303 RMK A01 T10021011  RH  094%=      5-min Rain = 0
KSE2 112254Z 35013G21KT M00/M01 A303 RMK A01 T10031012  RH  093%=      5-min Rain = 0
KSE2 112255Z 36012KT M00/M01 A303 RMK A01 T10031012  RH  093%=      5-min Rain = 0
KSE2 112256Z 36011KT M00/M01 A3031 RMK A01 T10031012  RH  093%=      5-min Rain = 0
KSE2 112257Z 35009G15KT M00/M01 A3031 RMK A01 T10021012  RH  094%=      5-min Rain = 0
KSE2 112258Z 35009G14KT M00/M01 A3031 RMK A01 T10021011  RH  094%=      5-min Rain = 0
KSE2 112259Z 35013G18KT M00/M01 A3032 RMK A01 T10021011  RH  094%=      5-min Rain = 0.01
KSE2 112300Z 35010KT M00/M01 A3032 RMK A01 T10021011  RH  094%=      5-min Rain = 0
KSE2 112301Z 34016KT M00/M01 A3032 RMK A01 T10021011  RH  094%=      5-min Rain = 0
KSE2 112302Z 34011G16KT M00/M01 A3032 RMK A01 T10021011  RH  094%=      5-min Rain = 0
KSE2 112303Z 34011KT M00/M01 A3032 RMK A01 T10021011  RH  094%=      5-min Rain = 0
KSE2 112304Z 35012KT M00/M01 A3032 RMK A01 T10021010  RH  094%=      5-min Rain = 0
KSE2 112305Z 36011G17KT M00/M01 A3031 RMK A01 T10021011  RH  094%=      5-min Rain = 0
KSE2 112306Z 35014KT M00/M01 A3031 RMK A01 T10021011  RH  094%=      5-min Rain = 0.01
KSE2 112307Z 36014G20KT M00/M01 A3031 RMK A01 T10021011  RH  094%=      5-min Rain = 0
KSE2 112308Z 35015G20KT M00/M01 A3031 RMK A01 T10031012  RH  094%=      5-min Rain = 0
KSE2 112309Z 36013KT M00/M01 A3031 RMK A01 T10031012  RH  094%=      5-min Rain = 0
KSE2 112310Z 34015KT M00/M01 A3031 RMK A01 T10031012  RH  094%=      5-min Rain = 0
KSE2 112311Z 36014KT M00/M01 A3031 RMK A01 T10031012  RH  094%=      5-min Rain = 0
KSE2 112312Z 35012KT M00/M01 A3031 RMK A01 T10031012  RH  094%=      5-min Rain = 0
KSE2 112313Z 35016KT M00/M01 A3031 RMK A01 T10031013  RH  094%=      5-min Rain = 0
KSE2 112314Z 35017G22KT M00/M01 A3031 RMK A01 T10041013  RH  094%=      5-min Rain = 0
KSE2 112315Z 35016G22KT M00/M01 A3031 RMK A01 T10041014  RH  093%=      5-min Rain = 0
KSE2 112316Z 35017KT M00/M01 A3031 RMK A01 T10041014  RH  093%=      5-min Rain = 0
KSE2 112317Z 35015G21KT M00/M01 A3031 RMK A01 T10041014  RH  093%=      5-min Rain = 0
KSE2 112318Z 34016G22KT M00/M01 A3031 RMK A01 T10041014  RH  093%=      5-min Rain = 0
KSE2 112319Z 36015KT M00/M01 A3031 RMK A01 T10041014  RH  093%=      5-min Rain = 0
KSE2 112320Z 35014KT M00/M01 A3031 RMK A01 T10041014  RH  093%=      5-min Rain = 0
KSE2 112321Z 36012G17KT M00/M01 A3031 RMK A01 T10041014  RH  093%=      5-min Rain = 0
KSE2 112322Z 35012KT M00/M01 A3031 RMK A01 T10041013  RH  094%=      5-min Rain = 0
KSE2 112323Z 36016KT M00/M01 A3031 RMK A01 T10041013  RH  094%=      5-min Rain = 0
KSE2 112324Z 35016G23KT M00/M01 A3032 RMK A01 T10041013  RH  094%=      5-min Rain = 0
KSE2 112325Z 35014KT M01/M01 A3032 RMK A01 T10051014  RH  094%=      5-min Rain = 0
KSE2 112326Z 35014G20KT M01/M01 A3032 RMK A01 T10051014  RH  094%=      5-min Rain = 0
KSE2 112327Z 34019G25KT M01/M01 A3032 RMK A01 T10051014  RH  093%=      5-min Rain = 0
KSE2 112328Z 35018KT M01/M02 A3032 RMK A01 T10051016  RH  093%=      5-min Rain = 0
KSE2 112329Z 34016G21KT M01/M02 A3033 RMK A01 T10061016  RH  093%=      5-min Rain = 0
KSE2 112330Z 36013G19KT M01/M02 A3033 RMK A01 T10051016  RH  093%=      5-min Rain = 0
KSE2 112331Z 35014G21KT M01/M02 A3033 RMK A01 T10051015  RH  093%=      5-min Rain = 0
KSE2 112332Z 35011KT M01/M02 A3033 RMK A01 T10051015  RH  093%=      5-min Rain = 0
KSE2 112333Z 36017G22KT M01/M01 A3033 RMK A01 T10051014  RH  093%=      5-min Rain = 0
KSE2 112334Z 00014G20KT M01/M02 A3033 RMK A01 T10051015  RH  093%=      5-min Rain = 0
KSE2 112335Z 35017KT M01/M02 A3033 RMK A01 T10051015  RH  093%=      5-min Rain = 0
KSE2 112336Z 35012KT M01/M02 A3033 RMK A01 T10051015  RH  093%=      5-min Rain = 0
KSE2 112337Z 35015KT M01/M02 A3033 RMK A01 T10051015  RH  093%=      5-min Rain = 0
KSE2 112338Z 36008KT M01/M01 A3033 RMK A01 T10051014  RH  094%=      5-min Rain = 0
KSE2 112339Z 35009KT M00/M01 A3033 RMK A01 T10041013  RH  094%=      5-min Rain = 0
KSE2 112340Z 34013G19KT M00/M01 A3033 RMK A01 T10041013  RH  094%=      5-min Rain = 0
KSE2 112341Z 35015KT M00/M01 A3033 RMK A01 T10041013  RH  094%=      5-min Rain = 0
KSE2 112342Z 35014KT M01/M01 A3033 RMK A01 T10051014  RH  094%=      5-min Rain = 0
KSE2 112343Z 35014KT M01/M01 A3033 RMK A01 T10051014  RH  094%=      5-min Rain = 0
KSE2 112344Z 35013KT M01/M01 A3034 RMK A01 T10051014  RH  094%=      5-min Rain = 0
KSE2 112345Z 35012G17KT M01/M01 A3034 RMK A01 T10051014  RH  094%=      5-min Rain = 0
KSE2 112346Z 34014KT M01/M01 A3034 RMK A01 T10051014  RH  094%=      5-min Rain = 0
KSE2 112347Z 35009KT M01/M02 A3034 RMK A01 T10061015  RH  094%=      5-min Rain = 0
KSE2 112348Z 34013G18KT M01/M01 A3034 RMK A01 T10061014  RH  094%=      5-min Rain = 0
KSE2 112349Z 34012KT M01/M01 A3034 RMK A01 T10061014  RH  094%=      5-min Rain = 0
KSE2 112350Z 35013KT M01/M02 A3034 RMK A01 T10071015  RH  094%=      5-min Rain = 0
KSE2 112351Z 35017G22KT M01/M02 A3033 RMK A01 T10071015  RH  094%=      5-min Rain = 0
KSE2 112352Z 36017KT M01/M02 A3034 RMK A01 T10071016  RH  094%=      5-min Rain = 0
KSE2 112353Z 36016KT M01/M02 A3034 RMK A01 T10071016  RH  094%=      5-min Rain = 0
KSE2 112354Z 36015KT M01/M02 A3034 RMK A01 T10071016  RH  094%=      5-min Rain = 0
KSE2 112355Z 35013G18KT M01/M02 A3034 RMK A01 T10071015  RH  094%=      5-min Rain = 0
KSE2 112356Z 00015G21KT M01/M02 A3034 RMK A01 T10071015  RH  094%=      5-min Rain = 0
KSE2 112357Z 36014G20KT M01/M02 A3034 RMK A01 T10071016  RH  094%=      5-min Rain = 0
KSE2 112358Z 36012G17KT M01/M02 A3034 RMK A01 T10071016  RH  094%=      5-min Rain = 0
KSE2 112359Z 00011G17KT M01/M02 A3034 RMK A01 T10071016  RH  094%=      5-min Rain = 0
KSE2 120000Z 36012KT M01/M02 A3034 RMK A01 T10071015  RH  094%=      5-min Rain = 0
KSE2 120001Z 36011KT M01/M02 A3034 RMK A01 T10061015  RH  094%=      5-min Rain = 0
KSE2 120002Z 00011G17KT M01/M02 A3034 RMK A01 T10061015  RH  094%=      5-min Rain = 0
KSE2 120003Z 35010KT M01/M01 A3035 RMK A01 T10061014  RH  094%=      5-min Rain = 0
KSE2 120004Z 35010G15KT M01/M01 A3035 RMK A01 T10061014  RH  094%=      5-min Rain = 0
KSE2 120005Z 34012G17KT M01/M01 A3035 RMK A01 T10061014  RH  094%=      5-min Rain = 0
KSE2 120006Z 34011KT M01/M01 A3035 RMK A01 T10061014  RH  094%=      5-min Rain = 0.02
KSE2 120007Z 35010G15KT M01/M01 A3035 RMK A01 T10061014  RH  094%=      5-min Rain = 0
KSE2 120008Z 35010KT M01/M01 A3035 RMK A01 T10061013  RH  095%=      5-min Rain = 0
KSE2 120009Z 35009G14KT M01/M01 A3036 RMK A01 T10061013  RH  095%=      5-min Rain = 0
KSE2 120010Z 35010KT M01/M01 A3035 RMK A01 T10051013  RH  095%=      5-min Rain = 0
KSE2 120011Z 34014KT M01/M01 A3035 RMK A01 T10061013  RH  095%=      5-min Rain = 0
KSE2 120012Z 35012KT M01/M01 A3035 RMK A01 T10061014  RH  094%=      5-min Rain = 0
KSE2 120013Z 36009KT M01/M01 A3035 RMK A01 T10061014  RH  094%=      5-min Rain = 0
KSE2 120014Z 35007KT M01/M01 A3035 RMK A01 T10061014  RH  095%=      5-min Rain = 0
KSE2 120015Z 00009G14KT M01/M01 A3035 RMK A01 T10051012  RH  095%=      5-min Rain = 0
KSE2 120016Z 35010KT M01/M01 A3035 RMK A01 T10051013  RH  095%=      5-min Rain = 0
KSE2 120017Z 36011G16KT M01/M01 A3035 RMK A01 T10051013  RH  095%=      5-min Rain = 0
KSE2 120018Z 35012KT M01/M01 A3035 RMK A01 T10061013  RH  095%=      5-min Rain = 0
KSE2 120019Z 35010KT M01/M01 A3036 RMK A01 T10061014  RH  094%=      5-min Rain = 0
KSE2 120020Z 35009KT M01/M01 A3036 RMK A01 T10061014  RH  094%=      5-min Rain = 0
KSE2 120021Z 35011G20KT M01/M01 A3036 RMK A01 T10061014  RH  094%=      5-min Rain = 0
KSE2 120022Z 35012G17KT M01/M02 A3036 RMK A01 T10071015  RH  094%=      5-min Rain = 0
KSE2 120023Z 35010KT M01/M02 A3036 RMK A01 T10071015  RH  094%=      5-min Rain = 0
KSE2 120024Z 35010KT M01/M02 A3036 RMK A01 T10081016  RH  094%=      5-min Rain = 0
KSE2 120025Z 35011G17KT M01/M02 A3036 RMK A01 T10071015  RH  095%=      5-min Rain = 0
KSE2 120026Z 35014G20KT M01/M02 A3036 RMK A01 T10081015  RH  095%=      5-min Rain = 0
KSE2 120027Z 35015G22KT M01/M02 A3037 RMK A01 T10081016  RH  094%=      5-min Rain = 0
KSE2 120028Z 35011G16KT M01/M02 A3037 RMK A01 T10091017  RH  094%=      5-min Rain = 0
KSE2 120029Z 35014G20KT M01/M02 A3037 RMK A01 T10091018  RH  094%=      5-min Rain = 0
KSE2 120030Z 36016KT M01/M02 A3037 RMK A01 T10101019  RH  094%=      5-min Rain = 0
KSE2 120031Z 00014KT M01/M02 A3037 RMK A01 T10101019  RH  094%=      5-min Rain = 0
KSE2 120032Z 35013G18KT M01/M02 A3037 RMK A01 T10111019  RH  094%=      5-min Rain = 0
KSE2 120033Z 35012G20KT M01/M02 A3037 RMK A01 T10111020  RH  094%=      5-min Rain = 0
KSE2 120034Z 35017KT M01/M02 A3037 RMK A01 T10111020  RH  094%=      5-min Rain = 0
KSE2 120035Z 35015KT M01/M02 A3037 RMK A01 T10121022  RH  093%=      5-min Rain = 0
KSE2 120036Z 35010KT M01/M02 A3037 RMK A01 T10121023  RH  093%=      5-min Rain = 0
KSE2 120037Z 34012KT M01/M02 A3037 RMK A01 T10121023  RH  093%=      5-min Rain = 0
KSE2 120038Z 34013G20KT M01/M02 A3037 RMK A01 T10131023  RH  093%=      5-min Rain = 0
KSE2 120039Z 35014KT M01/M02 A3037 RMK A01 T10131024  RH  093%=      5-min Rain = 0
KSE2 120040Z 35013G18KT M01/M02 A3037 RMK A01 T10141024  RH  093%=      5-min Rain = 0
KSE2 120041Z 36013KT M01/M02 A3037 RMK A01 T10141024  RH  093%=      5-min Rain = 0
KSE2 120042Z 35011G17KT M01/M02 A3038 RMK A01 T10141024  RH  093%=      5-min Rain = 0
KSE2 120043Z 35016G21KT M01/M02 A3038 RMK A01 T10141024  RH  093%=      5-min Rain = 0
KSE2 120044Z 35014KT M01/M03 A3038 RMK A01 T10141025  RH  092%=      5-min Rain = 0
KSE2 120045Z 34013G19KT M01/M03 A3038 RMK A01 T10141025  RH  092%=      5-min Rain = 0
KSE2 120046Z 34014KT M01/M03 A3038 RMK A01 T10141026  RH  092%=      5-min Rain = 0
KSE2 120047Z 35015G20KT M01/M03 A3039 RMK A01 T10141026  RH  092%=      5-min Rain = 0
KSE2 120048Z 35012KT M01/M03 A3039 RMK A01 T10141026  RH  092%=      5-min Rain = 0
KSE2 120049Z 34014KT M01/M03 A3039 RMK A01 T10141026  RH  092%=      5-min Rain = 0
KSE2 120050Z 35011KT M01/M03 A3039 RMK A01 T10141026  RH  092%=      5-min Rain = 0
KSE2 120051Z 34014G20KT M01/M03 A3039 RMK A01 T10141026  RH  092%=      5-min Rain = 0
KSE2 120052Z 34014KT M02/M03 A3039 RMK A01 T10151026  RH  092%=      5-min Rain = 0
KSE2 120053Z 36011KT M02/M03 A3039 RMK A01 T10151027  RH  091%=      5-min Rain = 0
KSE2 120054Z 35010KT M02/M03 A3039 RMK A01 T10151027  RH  091%=      5-min Rain = 0
KSE2 120055Z 36009G15KT M02/M03 A3039 RMK A01 T10151027  RH  092%=      5-min Rain = 0
KSE2 120056Z 36012G18KT M01/M03 A3039 RMK A01 T10141026  RH  092%=      5-min Rain = 0
KSE2 120057Z 35009G15KT M02/M03 A3039 RMK A01 T10151027  RH  092%=      5-min Rain = 0
KSE2 120058Z 00012G17KT M02/M03 A3039 RMK A01 T10151027  RH  092%=      5-min Rain = 0
KSE2 120059Z 00010G15KT M02/M03 A3039 RMK A01 T10151027  RH  091%=      5-min Rain = 0
KSE2 120100Z 36011KT M02/M03 A3039 RMK A01 T10151027  RH  091%=      5-min Rain = 0
KSE2 120101Z 00007KT M02/M03 A3039 RMK A01 T10151027  RH  091%=      5-min Rain = 0
KSE2 120102Z 36013KT M02/M03 A3039 RMK A01 T10151027  RH  092%=      5-min Rain = 0
KSE2 120103Z 00013G18KT M02/M03 A3039 RMK A01 T10161029  RH  091%=      5-min Rain = 0
KSE2 120104Z 00011KT M02/M03 A3039 RMK A01 T10161029  RH  091%=      5-min Rain = 0
KSE2 120105Z 01010KT M02/M03 A3039 RMK A01 T10161029  RH  091%=      5-min Rain = 0
KSE2 120106Z 00009KT M02/M03 A304 RMK A01 T10161029  RH  091%=      5-min Rain = 0
KSE2 120107Z 36007KT M02/M03 A304 RMK A01 T10161029  RH  091%=      5-min Rain = 0
KSE2 120108Z 00012KT M02/M03 A304 RMK A01 T10151027  RH  092%=      5-min Rain = 0
KSE2 120109Z 36010KT M02/M03 A304 RMK A01 T10161028  RH  092%=      5-min Rain = 0
KSE2 120110Z 36012KT M02/M03 A304 RMK A01 T10161028  RH  091%=      5-min Rain = 0
KSE2 120111Z 00010KT M02/M03 A304 RMK A01 T10161029  RH  091%=      5-min Rain = 0
KSE2 120112Z 35008KT M02/M03 A304 RMK A01 T10171029  RH  092%=      5-min Rain = 0
KSE2 120113Z 36009KT M02/M03 A304 RMK A01 T10171028  RH  092%=      5-min Rain = 0
KSE2 120114Z 36011KT M02/M03 A304 RMK A01 T10161027  RH  092%=      5-min Rain = 0
KSE2 120115Z 36011KT M02/M03 A304 RMK A01 T10171028  RH  092%=      5-min Rain = 0
KSE2 120116Z 00009KT M02/M03 A304 RMK A01 T10161027  RH  092%=      5-min Rain = 0
KSE2 120117Z 00010KT M02/M03 A304 RMK A01 T10171027  RH  092%=      5-min Rain = 0
KSE2 120118Z 36008G13KT M02/M03 A304 RMK A01 T10171027  RH  093%=      5-min Rain = 0
KSE2 120119Z 35010G15KT M02/M03 A3039 RMK A01 T10161027  RH  093%=      5-min Rain = 0
KSE2 120120Z 36008KT M02/M03 A3039 RMK A01 T10171027  RH  093%=      5-min Rain = 0
KSE2 120121Z 36009G14KT M02/M03 A3039 RMK A01 T10161027  RH  093%=      5-min Rain = 0
KSE2 120122Z 36009KT M02/M03 A3039 RMK A01 T10161026  RH  093%=      5-min Rain = 0
KSE2 120123Z 35012KT M02/M03 A3039 RMK A01 T10161026  RH  093%=      5-min Rain = 0
KSE2 120124Z 35011KT M02/M03 A3039 RMK A01 T10161026  RH  093%=      5-min Rain = 0
KSE2 120125Z 35010KT M02/M03 A304 RMK A01 T10161026  RH  093%=      5-min Rain = 0
KSE2 120126Z 36010KT M02/M03 A304 RMK A01 T10161027  RH  093%=      5-min Rain = 0
KSE2 120127Z 36009KT M02/M03 A3039 RMK A01 T10161026  RH  093%=      5-min Rain = 0
KSE2 120128Z 36008G15KT M02/M03 A304 RMK A01 T10161026  RH  093%=      5-min Rain = 0
KSE2 120129Z 36012KT M02/M03 A3039 RMK A01 T10161026  RH  093%=      5-min Rain = 0
KSE2 120130Z 35010KT M02/M03 A304 RMK A01 T10161026  RH  093%=      5-min Rain = 0
KSE2 120131Z 00008KT M02/M03 A304 RMK A01 T10161026  RH  093%=      5-min Rain = 0
KSE2 120132Z 34014G19KT M02/M03 A304 RMK A01 T10161027  RH  093%=      5-min Rain = 0
KSE2 120133Z 35012KT M02/M03 A304 RMK A01 T10171028  RH  092%=      5-min Rain = 0
KSE2 120134Z 34010KT M02/M03 A304 RMK A01 T10171028  RH  092%=      5-min Rain = 0
KSE2 120135Z 35011G17KT M02/M03 A304 RMK A01 T10171028  RH  092%=      5-min Rain = 0
KSE2 120136Z 35011G17KT M02/M03 A304 RMK A01 T10171028  RH  092%=      5-min Rain = 0
KSE2 120137Z 35011KT M02/M03 A304 RMK A01 T10171028  RH  092%=      5-min Rain = 0
KSE2 120138Z 35012KT M02/M03 A304 RMK A01 T10171028  RH  092%=      5-min Rain = 0
KSE2 120139Z 36012KT M02/M03 A3039 RMK A01 T10171028  RH  092%=      5-min Rain = 0
KSE2 120140Z 36008KT M02/M03 A3039 RMK A01 T10171028  RH  093%=      5-min Rain = 0
KSE2 120141Z 36009G15KT M02/M03 A3039 RMK A01 T10171027  RH  093%=      5-min Rain = 0
KSE2 120142Z 00010G16KT M02/M03 A3039 RMK A01 T10171027  RH  093%=      5-min Rain = 0
KSE2 120143Z 36011KT M02/M03 A3039 RMK A01 T10171028  RH  093%=      5-min Rain = 0
KSE2 120144Z 36012KT M02/M03 A3039 RMK A01 T10171028  RH  093%=      5-min Rain = 0
KSE2 120145Z 00010KT M02/M03 A3039 RMK A01 T10171028  RH  092%=      5-min Rain = 0
KSE2 120146Z 36011G16KT M02/M03 A304 RMK A01 T10171028  RH  092%=      5-min Rain = 0
KSE2 120147Z 36011G16KT M02/M03 A304 RMK A01 T10171028  RH  092%=      5-min Rain = 0
KSE2 120148Z 36010KT M02/M03 A304 RMK A01 T10171028  RH  092%=      5-min Rain = 0
KSE2 120149Z 00011KT M02/M03 A3039 RMK A01 T10171028  RH  092%=      5-min Rain = 0
KSE2 120150Z 01013KT M02/M03 A3039 RMK A01 T10171028  RH  092%=      5-min Rain = 0
KSE2 120151Z 36012KT M02/M03 A3039 RMK A01 T10181029  RH  092%=      5-min Rain = 0
KSE2 120152Z 00010KT M02/M03 A3039 RMK A01 T10181029  RH  092%=      5-min Rain = 0
KSE2 120153Z 00011G16KT M02/M03 A304 RMK A01 T10181029  RH  092%=      5-min Rain = 0
KSE2 120154Z 36009KT M02/M03 A304 RMK A01 T10181029  RH  092%=      5-min Rain = 0
KSE2 120155Z 00012G17KT M02/M03 A304 RMK A01 T10181029  RH  092%=      5-min Rain = 0
KSE2 120156Z 36010KT M02/M03 A304 RMK A01 T10181029  RH  092%=      5-min Rain = 0
KSE2 120157Z 01008KT M02/M03 A304 RMK A01 T10181029  RH  093%=      5-min Rain = 0
KSE2 120158Z 00010KT M02/M03 A304 RMK A01 T10181028  RH  093%=      5-min Rain = 0
KSE2 120159Z 01011KT M02/M03 A304 RMK A01 T10181028  RH  093%=      5-min Rain = 0
KSE2 120200Z 00008KT M02/M03 A304 RMK A01 T10181029  RH  093%=      5-min Rain = 0
KSE2 120201Z 36008KT M02/M03 A304 RMK A01 T10181028  RH  093%=      5-min Rain = 0
KSE2 120202Z 36009G14KT M02/M03 A304 RMK A01 T10181028  RH  093%=      5-min Rain = 0
KSE2 120203Z 35009KT M02/M03 A304 RMK A01 T10181028  RH  093%=      5-min Rain = 0
KSE2 120204Z 36009KT M02/M03 A304 RMK A01 T10181028  RH  093%=      5-min Rain = 0
KSE2 120205Z 36009KT M02/M03 A304 RMK A01 T10191028  RH  093%=      5-min Rain = 0
KSE2 120206Z 36009KT M02/M03 A304 RMK A01 T10191028  RH  094%=      5-min Rain = 0
KSE2 120207Z 35008KT M02/M03 A304 RMK A01 T10191028  RH  094%=      5-min Rain = 0
KSE2 120208Z 35010KT M02/M03 A3041 RMK A01 T10191028  RH  094%=      5-min Rain = 0
KSE2 120209Z 35008KT M02/M03 A304 RMK A01 T10191028  RH  094%=      5-min Rain = 0
KSE2 120210Z 00009KT M02/M03 A304 RMK A01 T10191027  RH  094%=      5-min Rain = 0
KSE2 120211Z 00007KT M02/M03 A304 RMK A01 T10191028  RH  094%=      5-min Rain = 0
KSE2 120212Z 35007KT M02/M03 A304 RMK A01 T10191027  RH  094%=      5-min Rain = 0
KSE2 120213Z 00009KT M02/M03 A304 RMK A01 T10191027  RH  094%=      5-min Rain = 0
KSE2 120214Z 35009KT M02/M03 A3041 RMK A01 T10191027  RH  094%=      5-min Rain = 0
KSE2 120215Z 36007KT M02/M03 A3041 RMK A01 T10191027  RH  094%=      5-min Rain = 0
KSE2 120216Z 35009KT M02/M03 A3041 RMK A01 T10191027  RH  094%=      5-min Rain = 0
KSE2 120217Z 36007KT M02/M03 A3041 RMK A01 T10191027  RH  094%=      5-min Rain = 0
KSE2 120218Z 36009KT M02/M03 A3041 RMK A01 T10191027  RH  094%=      5-min Rain = 0
KSE2 120219Z 00008KT M02/M03 A3041 RMK A01 T10191027  RH  094%=      5-min Rain = 0
KSE2 120220Z 35008G13KT M02/M03 A3041 RMK A01 T10191027  RH  094%=      5-min Rain = 0
KSE2 120221Z 35009KT M02/M03 A3041 RMK A01 T10191027  RH  094%=      5-min Rain = 0
KSE2 120222Z 35008KT M02/M03 A3041 RMK A01 T10181026  RH  094%=      5-min Rain = 0
KSE2 120223Z 36009KT M02/M03 A3042 RMK A01 T10181026  RH  094%=      5-min Rain = 0
KSE2 120224Z 35007KT M02/M03 A3042 RMK A01 T10181026  RH  094%=      5-min Rain = 0
KSE2 120225Z 35007KT M02/M03 A3042 RMK A01 T10181027  RH  094%=      5-min Rain = 0
KSE2 120226Z 36009KT M02/M03 A3042 RMK A01 T10181027  RH  094%=      5-min Rain = 0
KSE2 120227Z 00010KT M02/M03 A3042 RMK A01 T10181027  RH  094%=      5-min Rain = 0
KSE2 120228Z 35008KT M02/M03 A3042 RMK A01 T10181027  RH  094%=      5-min Rain = 0
KSE2 120229Z 00009KT M02/M03 A3042 RMK A01 T10181026  RH  094%=      5-min Rain = 0
KSE2 120230Z 00010KT M02/M03 A3041 RMK A01 T10181027  RH  094%=      5-min Rain = 0
KSE2 120231Z 00009KT M02/M03 A3041 RMK A01 T10181027  RH  094%=      5-min Rain = 0
KSE2 120232Z 36009KT M02/M03 A3041 RMK A01 T10181027  RH  094%=      5-min Rain = 0
KSE2 120233Z 36010KT M02/M03 A3041 RMK A01 T10181027  RH  094%=      5-min Rain = 0
KSE2 120234Z 00009KT M02/M03 A3042 RMK A01 T10181028  RH  093%=      5-min Rain = 0
KSE2 120235Z 36007KT M02/M03 A3041 RMK A01 T10181028  RH  093%=      5-min Rain = 0
KSE2 120236Z 36007KT M02/M03 A3041 RMK A01 T10181027  RH  093%=      5-min Rain = 0
KSE2 120237Z 36008KT M02/M03 A3041 RMK A01 T10181028  RH  093%=      5-min Rain = 0
KSE2 120238Z 00008KT M02/M03 A3041 RMK A01 T10191028  RH  093%=      5-min Rain = 0
KSE2 120239Z 36008KT M02/M03 A3041 RMK A01 T10181028  RH  093%=      5-min Rain = 0
KSE2 120240Z 35009KT M02/M03 A3041 RMK A01 T10181028  RH  093%=      5-min Rain = 0
KSE2 120241Z 35008KT M02/M03 A3041 RMK A01 T10181027  RH  094%=      5-min Rain = 0
KSE2 120242Z 36008KT M02/M03 A3042 RMK A01 T10181027  RH  094%=      5-min Rain = 0
KSE2 120243Z 00008KT M02/M03 A3042 RMK A01 T10181027  RH  094%=      5-min Rain = 0
KSE2 120244Z 36007KT M02/M03 A3042 RMK A01 T10181027  RH  094%=      5-min Rain = 0
KSE2 120245Z 35009KT M02/M03 A3042 RMK A01 T10181027  RH  094%=      5-min Rain = 0
KSE2 120246Z 00009KT M02/M03 A3042 RMK A01 T10181026  RH  094%=      5-min Rain = 0
KSE2 120247Z 35010KT M02/M03 A3042 RMK A01 T10191027  RH  094%=      5-min Rain = 0
KSE2 120248Z 35009KT M02/M03 A3042 RMK A01 T10191028  RH  094%=      5-min Rain = 0
KSE2 120249Z 35009KT M02/M03 A3042 RMK A01 T10191029  RH  093%=      5-min Rain = 0
KSE2 120250Z 35011KT M02/M03 A3042 RMK A01 T10191029  RH  093%=      5-min Rain = 0
KSE2 120251Z 36009KT M02/M03 A3042 RMK A01 T10191030  RH  093%=      5-min Rain = 0
KSE2 120252Z 01007KT M02/M03 A3042 RMK A01 T10191030  RH  093%=      5-min Rain = 0
KSE2 120253Z 35007KT M02/M03 A3042 RMK A01 T10191030  RH  093%=      5-min Rain = 0
KSE2 120254Z 36007KT M02/M03 A3042 RMK A01 T10191029  RH  093%=      5-min Rain = 0
KSE2 120255Z 00006KT M02/M03 A3042 RMK A01 T10191029  RH  093%=      5-min Rain = 0
KSE2 120256Z 36008KT M02/M03 A3042 RMK A01 T10191029  RH  093%=      5-min Rain = 0
KSE2 120257Z 36007KT M02/M03 A3043 RMK A01 T10191029  RH  093%=      5-min Rain = 0
KSE2 120258Z 35010KT M02/M03 A3043 RMK A01 T10191029  RH  093%=      5-min Rain = 0
KSE2 120259Z 35010KT M02/M03 A3043 RMK A01 T10191030  RH  092%=      5-min Rain = 0
KSE2 120300Z 36008KT M02/M03 A3043 RMK A01 T10191031  RH  092%=      5-min Rain = 0
KSE2 120301Z 34007KT M02/M03 A3043 RMK A01 T10191030  RH  092%=      5-min Rain = 0
KSE2 120302Z 35006KT M02/M03 A3043 RMK A01 T10191030  RH  092%=      5-min Rain = 0
KSE2 120303Z 35008KT M02/M03 A3043 RMK A01 T10191030  RH  092%=      5-min Rain = 0
KSE2 120304Z 35008KT M02/M03 A3043 RMK A01 T10191030  RH  092%=      5-min Rain = 0
KSE2 120305Z 35007KT M02/M03 A3043 RMK A01 T10191030  RH  092%=      5-min Rain = 0
KSE2 120306Z 35007KT M02/M03 A3044 RMK A01 T10191030  RH  092%=      5-min Rain = 0
KSE2 120307Z 35005KT M02/M03 A3044 RMK A01 T10191030  RH  092%=      5-min Rain = 0
KSE2 120308Z 35007KT M02/M03 A3043 RMK A01 T10191030  RH  093%=      5-min Rain = 0
KSE2 120309Z 34007KT M02/M03 A3044 RMK A01 T10201030  RH  093%=      5-min Rain = 0
KSE2 120310Z 34009KT M02/M03 A3044 RMK A01 T10201030  RH  092%=      5-min Rain = 0
KSE2 120311Z 35008KT M02/M03 A3044 RMK A01 T10201031  RH  092%=      5-min Rain = 0
KSE2 120312Z 35009KT M02/M03 A3044 RMK A01 T10201030  RH  092%=      5-min Rain = 0
KSE2 120313Z 34009KT M02/M03 A3043 RMK A01 T10201031  RH  092%=      5-min Rain = 0
KSE2 120314Z 35009KT M02/M03 A3043 RMK A01 T10201031  RH  092%=      5-min Rain = 0
KSE2 120315Z 35007KT M02/M03 A3043 RMK A01 T10201031  RH  092%=      5-min Rain = 0
KSE2 120316Z 35006KT M02/M03 A3043 RMK A01 T10201031  RH  093%=      5-min Rain = 0
KSE2 120317Z 36009KT M02/M03 A3043 RMK A01 T10201030  RH  093%=      5-min Rain = 0
KSE2 120318Z 36008KT M02/M03 A3043 RMK A01 T10201030  RH  093%=      5-min Rain = 0
KSE2 120319Z 36008KT M02/M03 A3043 RMK A01 T10201030  RH  093%=      5-min Rain = 0
KSE2 120320Z 36007KT M02/M03 A3043 RMK A01 T10201030  RH  093%=      5-min Rain = 0
KSE2 120321Z 35008KT M02/M03 A3043 RMK A01 T10201030  RH  093%=      5-min Rain = 0
KSE2 120322Z 35008KT M02/M03 A3043 RMK A01 T10201030  RH  093%=      5-min Rain = 0
KSE2 120323Z 35006KT M02/M03 A3043 RMK A01 T10201030  RH  093%=      5-min Rain = 0
KSE2 120324Z 34007KT M02/M03 A3043 RMK A01 T10201030  RH  093%=      5-min Rain = 0
KSE2 120325Z 35008KT M02/M03 A3043 RMK A01 T10201029  RH  093%=      5-min Rain = 0
KSE2 120326Z 35008KT M02/M03 A3044 RMK A01 T10201030  RH  093%=      5-min Rain = 0
KSE2 120327Z 35006KT M02/M03 A3044 RMK A01 T10201030  RH  093%=      5-min Rain = 0
KSE2 120328Z 35008KT M02/M03 A3044 RMK A01 T10201030  RH  093%=      5-min Rain = 0
KSE2 120329Z 35008KT M02/M03 A3044 RMK A01 T10201030  RH  093%=      5-min Rain = 0
KSE2 120330Z 34007KT M02/M03 A3043 RMK A01 T10201030  RH  093%=      5-min Rain = 0
KSE2 120331Z 36007KT M02/M03 A3043 RMK A01 T10201030  RH  093%=      5-min Rain = 0
KSE2 120332Z 35007KT M02/M03 A3043 RMK A01 T10201030  RH  093%=      5-min Rain = 0
KSE2 120333Z 00007KT M02/M03 A3043 RMK A01 T10201031  RH  093%=      5-min Rain = 0
KSE2 120334Z 35007KT M02/M03 A3042 RMK A01 T10201031  RH  093%=      5-min Rain = 0
KSE2 120335Z 35010KT M02/M03 A3042 RMK A01 T10201031  RH  093%=      5-min Rain = 0
KSE2 120336Z 36009KT M02/M03 A3042 RMK A01 T10211032  RH  092%=      5-min Rain = 0
KSE2 120337Z 35009KT M02/M03 A3042 RMK A01 T10211032  RH  092%=      5-min Rain = 0
KSE2 120338Z 36008KT M02/M03 A3042 RMK A01 T10211031  RH  092%=      5-min Rain = 0
KSE2 120339Z 35011KT M02/M03 A3042 RMK A01 T10211031  RH  092%=      5-min Rain = 0
KSE2 120340Z 36011KT M02/M03 A3042 RMK A01 T10201032  RH  092%=      5-min Rain = 0
KSE2 120341Z 36012KT M02/M03 A3042 RMK A01 T10211033  RH  091%=      5-min Rain = 0
KSE2 120342Z 00009G14KT M02/M03 A3042 RMK A01 T10211034  RH  091%=      5-min Rain = 0
KSE2 120343Z 00010KT M02/M03 A3042 RMK A01 T10211034  RH  091%=      5-min Rain = 0
KSE2 120344Z 35008KT M02/M03 A3042 RMK A01 T10211034  RH  091%=      5-min Rain = 0
KSE2 120345Z 35009KT M02/M03 A3043 RMK A01 T10211034  RH  091%=      5-min Rain = 0
KSE2 120346Z 00012KT M02/M03 A3043 RMK A01 T10211034  RH  091%=      5-min Rain = 0
KSE2 120347Z 36009KT M02/M04 A3043 RMK A01 T10211035  RH  090%=      5-min Rain = 0
KSE2 120348Z 35006KT M02/M04 A3044 RMK A01 T10211035  RH  090%=      5-min Rain = 0
KSE2 120349Z 35008KT M02/M04 A3044 RMK A01 T10211035  RH  090%=      5-min Rain = 0
KSE2 120350Z 34007KT M02/M03 A3044 RMK A01 T10211034  RH  091%=      5-min Rain = 0
KSE2 120351Z 34006G11KT M02/M03 A3045 RMK A01 T10211034  RH  091%=      5-min Rain = 0
KSE2 120352Z 35007KT M02/M03 A3045 RMK A01 T10211034  RH  091%=      5-min Rain = 0
KSE2 120353Z 35005KT M02/M03 A3045 RMK A01 T10211034  RH  091%=      5-min Rain = 0
KSE2 120354Z 35006KT M02/M03 A3045 RMK A01 T10211034  RH  091%=      5-min Rain = 0
KSE2 120355Z 35007KT M02/M03 A3045 RMK A01 T10211034  RH  091%=      5-min Rain = 0
KSE2 120356Z 35006KT M02/M03 A3045 RMK A01 T10211033  RH  091%=      5-min Rain = 0
KSE2 120357Z 35007KT M02/M03 A3045 RMK A01 T10211033  RH  091%=      5-min Rain = 0
KSE2 120358Z 36007KT M02/M03 A3045 RMK A01 T10211033  RH  091%=      5-min Rain = 0
KSE2 120359Z 35006KT M02/M03 A3045 RMK A01 T10211033  RH  092%=      5-min Rain = 0
KSE2 120400Z 35005KT M02/M03 A3045 RMK A01 T10211033  RH  092%=      5-min Rain = 0
KSE2 120401Z 35007KT M02/M03 A3045 RMK A01 T10211032  RH  092%=      5-min Rain = 0
KSE2 120402Z 35008KT M02/M03 A3045 RMK A01 T10211033  RH  092%=      5-min Rain = 0
KSE2 120403Z 35007KT M02/M03 A3046 RMK A01 T10211033  RH  092%=      5-min Rain = 0
KSE2 120404Z 35005KT M02/M03 A3046 RMK A01 T10211033  RH  092%=      5-min Rain = 0
KSE2 120405Z 35005KT M02/M03 A3046 RMK A01 T10221033  RH  092%=      5-min Rain = 0
KSE2 120406Z 35005KT M02/M03 A3046 RMK A01 T10211033  RH  092%=      5-min Rain = 0
KSE2 120407Z 34007KT M02/M03 A3046 RMK A01 T10211032  RH  092%=      5-min Rain = 0
KSE2 120408Z 35006KT M02/M03 A3046 RMK A01 T10221033  RH  092%=      5-min Rain = 0
KSE2 120409Z 36006KT M02/M03 A3046 RMK A01 T10221033  RH  092%=      5-min Rain = 0
KSE2 120410Z 35007KT M02/M03 A3046 RMK A01 T10221033  RH  092%=      5-min Rain = 0
KSE2 120411Z 35005KT M02/M03 A3045 RMK A01 T10221033  RH  092%=      5-min Rain = 0
KSE2 120412Z 36005KT M02/M03 A3045 RMK A01 T10211032  RH  092%=      5-min Rain = 0
KSE2 120413Z 35006KT M02/M03 A3045 RMK A01 T10221032  RH  092%=      5-min Rain = 0
KSE2 120414Z 35006KT M02/M03 A3045 RMK A01 T10211032  RH  092%=      5-min Rain = 0
KSE2 120415Z 00006KT M02/M03 A3045 RMK A01 T10221032  RH  092%=      5-min Rain = 0
KSE2 120416Z 36006KT M02/M03 A3045 RMK A01 T10211032  RH  093%=      5-min Rain = 0
KSE2 120417Z 35008KT M02/M03 A3045 RMK A01 T10221032  RH  093%=      5-min Rain = 0
KSE2 120418Z 36007KT M02/M03 A3045 RMK A01 T10221033  RH  092%=      5-min Rain = 0
KSE2 120419Z 00006KT M02/M03 A3045 RMK A01 T10221033  RH  092%=      5-min Rain = 0
KSE2 120420Z 36005KT M02/M03 A3045 RMK A01 T10221033  RH  092%=      5-min Rain = 0
KSE2 120421Z 35005KT M02/M03 A3045 RMK A01 T10221032  RH  093%=      5-min Rain = 0
KSE2 120422Z 00005KT M02/M03 A3045 RMK A01 T10221032  RH  093%=      5-min Rain = 0
KSE2 120423Z 01007KT M02/M03 A3045 RMK A01 T10221031  RH  093%=      5-min Rain = 0
KSE2 120424Z 00007KT M02/M03 A3045 RMK A01 T10211031  RH  093%=      5-min Rain = 0
KSE2 120425Z 36007KT M02/M03 A3045 RMK A01 T10221031  RH  093%=      5-min Rain = 0
KSE2 120426Z 00009KT M02/M03 A3045 RMK A01 T10221032  RH  093%=      5-min Rain = 0
KSE2 120427Z 36008KT M02/M03 A3045 RMK A01 T10211032  RH  093%=      5-min Rain = 0
KSE2 120428Z 35007KT M02/M03 A3044 RMK A01 T10221032  RH  093%=      5-min Rain = 0
KSE2 120429Z 00006KT M02/M03 A3045 RMK A01 T10211032  RH  093%=      5-min Rain = 0
KSE2 120430Z 35008G13KT M02/M03 A3045 RMK A01 T10221032  RH  093%=      5-min Rain = 0
KSE2 120431Z 36010KT M02/M03 A3045 RMK A01 T10211032  RH  092%=      5-min Rain = 0
KSE2 120432Z 00008KT M02/M03 A3045 RMK A01 T10211033  RH  092%=      5-min Rain = 0
KSE2 120433Z 35008KT M02/M03 A3045 RMK A01 T10221034  RH  091%=      5-min Rain = 0
KSE2 120434Z 35010G15KT M02/M04 A3045 RMK A01 T10221036  RH  090%=      5-min Rain = 0
KSE2 120435Z 36009KT M02/M04 A3045 RMK A01 T10231039  RH  089%=      5-min Rain = 0
KSE2 120436Z 35008KT M02/M04 A3045 RMK A01 T10231040  RH  088%=      5-min Rain = 0
KSE2 120437Z 35009KT M02/M04 A3045 RMK A01 T10231041  RH  088%=      5-min Rain = 0
KSE2 120438Z 35010KT M02/M04 A3045 RMK A01 T10241042  RH  088%=      5-min Rain = 0
KSE2 120439Z 35010KT M02/M04 A3045 RMK A01 T10241042  RH  087%=      5-min Rain = 0
KSE2 120440Z 35008KT M02/M04 A3045 RMK A01 T10241042  RH  087%=      5-min Rain = 0
KSE2 120441Z 00009KT M02/M04 A3045 RMK A01 T10241042  RH  088%=      5-min Rain = 0
KSE2 120442Z 00008KT M03/M04 A3045 RMK A01 T10251042  RH  088%=      5-min Rain = 0
KSE2 120443Z 35008KT M03/M04 A3045 RMK A01 T10251042  RH  088%=      5-min Rain = 0
KSE2 120444Z 36010KT M03/M04 A3045 RMK A01 T10251043  RH  088%=      5-min Rain = 0
KSE2 120445Z 36011KT M03/M04 A3045 RMK A01 T10251044  RH  087%=      5-min Rain = 0
KSE2 120446Z 00010KT M03/M05 A3045 RMK A01 T10261046  RH  086%=      5-min Rain = 0
KSE2 120447Z 35010KT M03/M05 A3045 RMK A01 T10261047  RH  086%=      5-min Rain = 0
KSE2 120448Z 35010KT M03/M05 A3045 RMK A01 T10261046  RH  086%=      5-min Rain = 0
KSE2 120449Z 36009KT M03/M05 A3045 RMK A01 T10261046  RH  086%=      5-min Rain = 0
KSE2 120450Z 00009G15KT M03/M05 A3045 RMK A01 T10261045  RH  087%=      5-min Rain = 0
KSE2 120451Z 01010KT M03/M05 A3045 RMK A01 T10261046  RH  086%=      5-min Rain = 0
KSE2 120452Z 36011KT M03/M05 A3045 RMK A01 T10271047  RH  086%=      5-min Rain = 0
KSE2 120453Z 36010KT M03/M05 A3045 RMK A01 T10271047  RH  086%=      5-min Rain = 0
KSE2 120454Z 35011KT M03/M05 A3045 RMK A01 T10261046  RH  086%=      5-min Rain = 0
KSE2 120455Z 35009KT M03/M05 A3045 RMK A01 T10271047  RH  086%=      5-min Rain = 0
KSE2 120456Z 36009KT M03/M05 A3045 RMK A01 T10271046  RH  087%=      5-min Rain = 0
KSE2 120457Z 36010KT M03/M05 A3045 RMK A01 T10271045  RH  087%=      5-min Rain = 0
KSE2 120458Z 00009KT M03/M05 A3045 RMK A01 T10271046  RH  087%=      5-min Rain = 0
KSE2 120459Z 36009KT M03/M05 A3045 RMK A01 T10271046  RH  087%=      5-min Rain = 0
KSE2 120500Z 36007KT M03/M05 A3045 RMK A01 T10271045  RH  087%=      5-min Rain = 0
KSE2 120501Z 35008KT M03/M04 A3046 RMK A01 T10271044  RH  088%=      5-min Rain = 0
KSE2 120502Z 00008KT M03/M04 A3046 RMK A01 T10271044  RH  088%=      5-min Rain = 0
KSE2 120503Z 35008KT M03/M04 A3046 RMK A01 T10271044  RH  088%=      5-min Rain = 0
KSE2 120504Z 35009KT M03/M04 A3046 RMK A01 T10271043  RH  089%=      5-min Rain = 0
KSE2 120505Z 00009KT M03/M04 A3046 RMK A01 T10271044  RH  088%=      5-min Rain = 0
KSE2 120506Z 35010KT M03/M05 A3046 RMK A01 T10271045  RH  088%=      5-min Rain = 0
KSE2 120507Z 36007KT M03/M05 A3046 RMK A01 T10271045  RH  088%=      5-min Rain = 0
KSE2 120508Z 35009KT M03/M04 A3046 RMK A01 T10271044  RH  088%=      5-min Rain = 0
KSE2 120509Z 01009KT M03/M04 A3046 RMK A01 T10271044  RH  088%=      5-min Rain = 0
KSE2 120510Z 36008KT M03/M04 A3046 RMK A01 T10271044  RH  088%=      5-min Rain = 0
KSE2 120511Z 36008KT M03/M04 A3046 RMK A01 T10271044  RH  088%=      5-min Rain = 0
KSE2 120512Z 35008KT M03/M04 A3046 RMK A01 T10271044  RH  088%=      5-min Rain = 0
KSE2 120513Z 35007KT M03/M04 A3046 RMK A01 T10271044  RH  088%=      5-min Rain = 0
KSE2 120514Z 36006KT M03/M04 A3046 RMK A01 T10271043  RH  089%=      5-min Rain = 0
KSE2 120515Z 35010KT M03/M04 A3046 RMK A01 T10271042  RH  089%=      5-min Rain = 0
KSE2 120516Z 35009KT M03/M04 A3046 RMK A01 T10271043  RH  088%=      5-min Rain = 0
KSE2 120517Z 36008KT M03/M04 A3045 RMK A01 T10261043  RH  088%=      5-min Rain = 0
KSE2 120518Z 35010KT M03/M04 A3045 RMK A01 T10271043  RH  088%=      5-min Rain = 0
KSE2 120519Z 35010KT M03/M04 A3046 RMK A01 T10261044  RH  088%=      5-min Rain = 0
KSE2 120520Z 00009KT M03/M04 A3046 RMK A01 T10271044  RH  088%=      5-min Rain = 0
KSE2 120521Z 00006KT M03/M04 A3046 RMK A01 T10271044  RH  088%=      5-min Rain = 0
KSE2 120522Z 36008KT M03/M04 A3046 RMK A01 T10271043  RH  088%=      5-min Rain = 0
KSE2 120523Z 35009KT M03/M04 A3046 RMK A01 T10261043  RH  088%=      5-min Rain = 0
KSE2 120524Z 36006KT M03/M04 A3046 RMK A01 T10261044  RH  088%=      5-min Rain = 0
KSE2 120525Z 35009KT M03/M04 A3046 RMK A01 T10261043  RH  088%=      5-min Rain = 0
KSE2 120526Z 36009KT M03/M04 A3046 RMK A01 T10271044  RH  088%=      5-min Rain = 0
KSE2 120527Z 00010KT M03/M05 A3046 RMK A01 T10271045  RH  087%=      5-min Rain = 0
KSE2 120528Z 36010KT M03/M05 A3046 RMK A01 T10271046  RH  087%=      5-min Rain = 0
KSE2 120529Z 36008KT M03/M05 A3046 RMK A01 T10271046  RH  087%=      5-min Rain = 0
KSE2 120530Z 35007KT M03/M05 A3046 RMK A01 T10271045  RH  087%=      5-min Rain = 0
KSE2 120531Z 36008KT M03/M05 A3046 RMK A01 T10271045  RH  088%=      5-min Rain = 0
KSE2 120532Z 01008KT M03/M05 A3046 RMK A01 T10271045  RH  088%=      5-min Rain = 0
KSE2 120533Z 36009KT M03/M05 A3046 RMK A01 T10271045  RH  088%=      5-min Rain = 0
KSE2 120534Z 36010KT M03/M05 A3046 RMK A01 T10271046  RH  087%=      5-min Rain = 0
KSE2 120535Z 36008KT M03/M05 A3046 RMK A01 T10271046  RH  087%=      5-min Rain = 0
KSE2 120536Z 35011KT M03/M05 A3046 RMK A01 T10271045  RH  087%=      5-min Rain = 0
KSE2 120537Z 35008KT M03/M05 A3046 RMK A01 T10271046  RH  087%=      5-min Rain = 0
KSE2 120538Z 35008KT M03/M05 A3047 RMK A01 T10281046  RH  087%=      5-min Rain = 0
KSE2 120539Z 35010KT M03/M05 A3047 RMK A01 T10271046  RH  087%=      5-min Rain = 0
KSE2 120540Z 35010KT M03/M05 A3047 RMK A01 T10281047  RH  087%=      5-min Rain = 0
KSE2 120541Z 35010G15KT M03/M05 A3047 RMK A01 T10281048  RH  086%=      5-min Rain = 0
KSE2 120542Z 36008KT M03/M05 A3047 RMK A01 T10281048  RH  086%=      5-min Rain = 0
KSE2 120543Z 35010KT M03/M05 A3047 RMK A01 T10281047  RH  087%=      5-min Rain = 0
KSE2 120544Z 35008KT M03/M05 A3047 RMK A01 T10281047  RH  087%=      5-min Rain = 0
KSE2 120545Z 35007G12KT M03/M05 A3047 RMK A01 T10281047  RH  087%=      5-min Rain = 0
KSE2 120546Z 00008KT M03/M05 A3048 RMK A01 T10281048  RH  087%=      5-min Rain = 0
KSE2 120547Z 36007KT M03/M05 A3048 RMK A01 T10281049  RH  086%=      5-min Rain = 0
KSE2 120548Z 35009KT M03/M05 A3048 RMK A01 T10291049  RH  086%=      5-min Rain = 0
KSE2 120549Z 36009KT M03/M05 A3048 RMK A01 T10291050  RH  085%=      5-min Rain = 0
KSE2 120550Z 00006KT M03/M05 A3048 RMK A01 T10291051  RH  085%=      5-min Rain = 0
KSE2 120551Z 36006KT M03/M05 A3048 RMK A01 T10291050  RH  086%=      5-min Rain = 0
KSE2 120552Z 00009KT M03/M05 A3048 RMK A01 T10301050  RH  086%=      5-min Rain = 0
KSE2 120553Z 36008KT M03/M05 A3048 RMK A01 T10301051  RH  085%=      5-min Rain = 0
KSE2 120554Z 36007KT M03/M05 A3049 RMK A01 T10301051  RH  085%=      5-min Rain = 0
KSE2 120555Z 36007KT M03/M05 A3049 RMK A01 T10301051  RH  086%=      5-min Rain = 0
KSE2 120556Z 36006KT M03/M05 A3049 RMK A01 T10301050  RH  086%=      5-min Rain = 0
KSE2 120557Z 36007KT M03/M05 A3049 RMK A01 T10301049  RH  087%=      5-min Rain = 0
KSE2 120558Z 36006KT M03/M05 A3049 RMK A01 T10301049  RH  087%=      5-min Rain = 0
KSE2 120559Z 36009KT M03/M05 A3049 RMK A01 T10311049  RH  087%=      5-min Rain = 0

Page generated in 0.0781 seconds.